BAW18B TXKF-EGLL
Flight info
| Callsign | BAW18B |
|---|---|
| Flight time | 6h 26m |
| Altitude | 39000 |
| Route | M083F390 BORNN1 BALOO DCT SOORY DCT 42N050W 45N040W 46N030W 47N020W 47N015W DCT ETIKI DCT REGHI/N0465F390 DCT AMPOP DCT SIDDI DCT DAWLY DCT ELRIP DCT OTMET OTMET1H |
| Aircraft | B772/H-SDE1E3FGHIJ3J5J6M1M2P2RWXYZ/LB1D1 |
Departure
| Time | 2026-04-07 10:28 |
|---|---|
| Airport | L.F. Wade International Airport (TXKF) |
Arrival
| Time | 2026-04-07 16:54 |
|---|---|
| Airport | London Heathrow Airport (EGLL) |
| Time | Latitude | Longitude | Altitude | Speed | Heading |
|---|---|---|---|---|---|
| 2026-04-07 09:40 | 32.36286 | -64.70317 | 29 ft | 0 kts | 247° |
| 2026-04-07 10:20 | 32.36287 | -64.70315 | 26 ft | 2 kts | 247° |
| 2026-04-07 10:20 | 32.36298 | -64.70287 | 27 ft | 4 kts | 239° |
| 2026-04-07 10:21 | 32.36313 | -64.70261 | 26 ft | 4 kts | 224° |
| 2026-04-07 10:21 | 32.36333 | -64.70245 | 26 ft | 4 kts | 175° |
| 2026-04-07 10:21 | 32.36343 | -64.70248 | 27 ft | 0 kts | 129° |
| 2026-04-07 10:23 | 32.36314 | -64.70220 | 29 ft | 6 kts | 148° |
| 2026-04-07 10:24 | 32.36294 | -64.70205 | 29 ft | 0 kts | 145° |
| 2026-04-07 10:24 | 32.36278 | -64.70182 | 29 ft | 9 kts | 119° |
| 2026-04-07 10:24 | 32.36283 | -64.70109 | 29 ft | 8 kts | 69° |
| 2026-04-07 10:24 | 32.36305 | -64.70046 | 29 ft | 9 kts | 67° |
| 2026-04-07 10:25 | 32.36338 | -64.69958 | 29 ft | 14 kts | 66° |
| 2026-04-07 10:25 | 32.36384 | -64.69830 | 29 ft | 19 kts | 67° |
| 2026-04-07 10:25 | 32.36442 | -64.69667 | 29 ft | 23 kts | 68° |
| 2026-04-07 10:25 | 32.36496 | -64.69508 | 30 ft | 19 kts | 68° |
| 2026-04-07 10:26 | 32.36568 | -64.69409 | 30 ft | 14 kts | 12° |
| 2026-04-07 10:26 | 32.36644 | -64.69384 | 31 ft | 8 kts | 34° |
| 2026-04-07 10:26 | 32.36654 | -64.69341 | 31 ft | 4 kts | 86° |
| 2026-04-07 10:26 | 32.36653 | -64.69321 | 31 ft | 2 kts | 95° |
| 2026-04-07 10:27 | 32.36651 | -64.69309 | 31 ft | 1 kts | 101° |
| 2026-04-07 10:27 | 32.36642 | -64.69252 | 31 ft | 24 kts | 101° |
| 2026-04-07 10:27 | 32.36559 | -64.68770 | 41 ft | 95 kts | 101° |
| 2026-04-07 10:27 | 32.36388 | -64.67750 | 35 ft | 155 kts | 101° |
| 2026-04-07 10:28 | 32.36185 | -64.66470 | 617 ft | 158 kts | 102° |
| 2026-04-07 10:28 | 32.35980 | -64.65170 | 1222 ft | 165 kts | 105° |
| 2026-04-07 10:28 | 32.35732 | -64.63813 | 1785 ft | 178 kts | 106° |
| 2026-04-07 10:28 | 32.35450 | -64.62293 | 1988 ft | 200 kts | 105° |
| 2026-04-07 10:29 | 32.35149 | -64.60599 | 2187 ft | 222 kts | 105° |
| 2026-04-07 10:29 | 32.34823 | -64.58717 | 2377 ft | 244 kts | 104° |
| 2026-04-07 10:29 | 32.34809 | -64.56656 | 2650 ft | 263 kts | 75° |
| 2026-04-07 10:29 | 32.35812 | -64.54831 | 3175 ft | 270 kts | 46° |
| 2026-04-07 10:30 | 32.37211 | -64.53297 | 3720 ft | 276 kts | 44° |
| 2026-04-07 10:30 | 32.38629 | -64.51746 | 4406 ft | 279 kts | 44° |
| 2026-04-07 10:30 | 32.40058 | -64.50173 | 5108 ft | 282 kts | 44° |
| 2026-04-07 10:30 | 32.41498 | -64.48576 | 5830 ft | 286 kts | 44° |
| 2026-04-07 10:31 | 32.42951 | -64.46950 | 6454 ft | 290 kts | 44° |
| 2026-04-07 10:31 | 32.44418 | -64.45299 | 7079 ft | 292 kts | 45° |
| 2026-04-07 10:31 | 32.45894 | -64.43628 | 7680 ft | 295 kts | 45° |
| 2026-04-07 10:31 | 32.47385 | -64.41935 | 8279 ft | 299 kts | 45° |
| 2026-04-07 10:32 | 32.48892 | -64.40219 | 8864 ft | 302 kts | 45° |
| 2026-04-07 10:32 | 32.50412 | -64.38485 | 9464 ft | 305 kts | 45° |
| 2026-04-07 10:32 | 32.51955 | -64.36721 | 9969 ft | 312 kts | 45° |
| 2026-04-07 10:32 | 32.53527 | -64.34923 | 10438 ft | 318 kts | 45° |
| 2026-04-07 10:33 | 32.55171 | -64.33039 | 10607 ft | 340 kts | 45° |
| 2026-04-07 10:33 | 32.56925 | -64.31027 | 10818 ft | 360 kts | 45° |
| 2026-04-07 10:33 | 32.58752 | -64.28930 | 11327 ft | 371 kts | 45° |
| 2026-04-07 10:33 | 32.60624 | -64.26782 | 11997 ft | 377 kts | 44° |
| 2026-04-07 10:34 | 32.62516 | -64.24609 | 12859 ft | 380 kts | 44° |
| 2026-04-07 10:34 | 32.64425 | -64.22417 | 13754 ft | 384 kts | 44° |
| 2026-04-07 10:34 | 32.66354 | -64.20199 | 14535 ft | 389 kts | 44° |
| 2026-04-07 10:34 | 32.68311 | -64.17947 | 15279 ft | 394 kts | 44° |
| 2026-04-07 10:35 | 32.70287 | -64.15672 | 16034 ft | 399 kts | 44° |
| 2026-04-07 10:35 | 32.72298 | -64.13353 | 16736 ft | 406 kts | 44° |
| 2026-04-07 10:35 | 32.74336 | -64.11004 | 17499 ft | 411 kts | 44° |
| 2026-04-07 10:35 | 32.76397 | -64.08625 | 18293 ft | 415 kts | 44° |
| 2026-04-07 10:36 | 32.78480 | -64.06219 | 18984 ft | 420 kts | 44° |
| 2026-04-07 10:36 | 32.80591 | -64.03779 | 19649 ft | 425 kts | 43° |
| 2026-04-07 10:36 | 32.82723 | -64.01314 | 20301 ft | 430 kts | 43° |
| 2026-04-07 10:36 | 32.84882 | -63.98815 | 20940 ft | 436 kts | 43° |
| 2026-04-07 10:37 | 32.87069 | -63.96283 | 21575 ft | 442 kts | 43° |
| 2026-04-07 10:37 | 32.89286 | -63.93713 | 22208 ft | 448 kts | 43° |
| 2026-04-07 10:37 | 32.91531 | -63.91111 | 22826 ft | 454 kts | 43° |
| 2026-04-07 10:37 | 32.93805 | -63.88473 | 23444 ft | 460 kts | 42° |
| 2026-04-07 10:38 | 32.96108 | -63.85798 | 24017 ft | 465 kts | 42° |
| 2026-04-07 10:38 | 32.97646 | -63.84011 | 24375 ft | 468 kts | 42° |
| 2026-04-07 10:38 | 33.00745 | -63.80406 | 25104 ft | 473 kts | 42° |
| 2026-04-07 10:38 | 33.03105 | -63.77657 | 25629 ft | 477 kts | 42° |
| 2026-04-07 10:39 | 33.05487 | -63.74879 | 26170 ft | 480 kts | 42° |
| 2026-04-07 10:39 | 33.07883 | -63.72084 | 26644 ft | 484 kts | 42° |
| 2026-04-07 10:39 | 33.10298 | -63.69264 | 27129 ft | 488 kts | 42° |
| 2026-04-07 10:39 | 33.12734 | -63.66418 | 27578 ft | 492 kts | 42° |
| 2026-04-07 10:40 | 33.14394 | -63.64476 | 27884 ft | 495 kts | 42° |
| 2026-04-07 10:40 | 33.16861 | -63.61589 | 28328 ft | 499 kts | 42° |
| 2026-04-07 10:40 | 33.19343 | -63.58683 | 28758 ft | 502 kts | 42° |
| 2026-04-07 10:40 | 33.21844 | -63.55751 | 29165 ft | 506 kts | 42° |
| 2026-04-07 10:41 | 33.24363 | -63.52795 | 29576 ft | 509 kts | 42° |
| 2026-04-07 10:41 | 33.26898 | -63.49820 | 29974 ft | 513 kts | 42° |
| 2026-04-07 10:41 | 33.29450 | -63.46820 | 30334 ft | 516 kts | 41° |
| 2026-04-07 10:41 | 33.32017 | -63.43800 | 30672 ft | 518 kts | 41° |
| 2026-04-07 10:42 | 33.34589 | -63.40772 | 31049 ft | 519 kts | 42° |
| 2026-04-07 10:42 | 33.37160 | -63.37742 | 31435 ft | 520 kts | 41° |
| 2026-04-07 10:42 | 33.39739 | -63.34700 | 31776 ft | 521 kts | 41° |
| 2026-04-07 10:42 | 33.42325 | -63.31647 | 32057 ft | 523 kts | 41° |
| 2026-04-07 10:43 | 33.44924 | -63.28578 | 32314 ft | 526 kts | 41° |
| 2026-04-07 10:43 | 33.47530 | -63.25497 | 32599 ft | 528 kts | 41° |
| 2026-04-07 10:43 | 33.50147 | -63.22400 | 32824 ft | 530 kts | 41° |
| 2026-04-07 10:43 | 33.52776 | -63.19286 | 33037 ft | 532 kts | 41° |
| 2026-04-07 10:44 | 33.55377 | -63.16202 | 33312 ft | 533 kts | 41° |
| 2026-04-07 10:44 | 33.58006 | -63.13080 | 33682 ft | 532 kts | 41° |
| 2026-04-07 10:44 | 33.60619 | -63.09973 | 34224 ft | 526 kts | 41° |
| 2026-04-07 10:44 | 33.63204 | -63.06896 | 34663 ft | 522 kts | 41° |
| 2026-04-07 10:45 | 33.65780 | -63.03830 | 34984 ft | 522 kts | 41° |
| 2026-04-07 10:45 | 33.68362 | -63.00758 | 35179 ft | 524 kts | 41° |
| 2026-04-07 10:45 | 33.70952 | -62.97673 | 35432 ft | 524 kts | 41° |
| 2026-04-07 10:45 | 33.73540 | -62.94586 | 35738 ft | 523 kts | 41° |
| 2026-04-07 10:46 | 33.76118 | -62.91506 | 36078 ft | 521 kts | 41° |
| 2026-04-07 10:46 | 33.78686 | -62.88436 | 36432 ft | 519 kts | 41° |
| 2026-04-07 10:46 | 33.81241 | -62.85378 | 36775 ft | 518 kts | 40° |
| 2026-04-07 10:46 | 33.83789 | -62.82327 | 37079 ft | 517 kts | 40° |
| 2026-04-07 10:47 | 33.86338 | -62.79272 | 37307 ft | 517 kts | 40° |
| 2026-04-07 10:47 | 33.88887 | -62.76215 | 37590 ft | 517 kts | 40° |
| 2026-04-07 10:47 | 33.91426 | -62.73167 | 37902 ft | 515 kts | 40° |
| 2026-04-07 10:47 | 33.93956 | -62.70126 | 38210 ft | 513 kts | 40° |
| 2026-04-07 10:48 | 33.96480 | -62.67090 | 38489 ft | 512 kts | 40° |
| 2026-04-07 10:48 | 33.98999 | -62.64058 | 38750 ft | 512 kts | 40° |
| 2026-04-07 10:48 | 34.01513 | -62.61029 | 38991 ft | 511 kts | 40° |
| 2026-04-07 10:49 | 34.06565 | -62.54938 | 39135 ft | 516 kts | 40° |
| 2026-04-07 10:49 | 34.11630 | -62.48812 | 39206 ft | 513 kts | 40° |
| 2026-04-07 10:50 | 34.16638 | -62.42744 | 39199 ft | 507 kts | 40° |
| 2026-04-07 10:50 | 34.21603 | -62.36723 | 39216 ft | 507 kts | 40° |
| 2026-04-07 10:51 | 34.26616 | -62.30637 | 39222 ft | 514 kts | 40° |
| 2026-04-07 10:51 | 34.31679 | -62.24473 | 39225 ft | 518 kts | 40° |
| 2026-04-07 10:52 | 34.36704 | -62.18337 | 39202 ft | 512 kts | 40° |
| 2026-04-07 10:52 | 34.42047 | -62.12851 | 39203 ft | 495 kts | 19° |
| 2026-04-07 10:52 | 34.45210 | -62.11400 | 39235 ft | 484 kts | 11° |
| 2026-04-07 10:53 | 34.48426 | -62.10127 | 39223 ft | 488 kts | 11° |
| 2026-04-07 10:53 | 34.54906 | -62.07460 | 39225 ft | 495 kts | 12° |
| 2026-04-07 10:54 | 34.61431 | -62.04664 | 39224 ft | 500 kts | 13° |
| 2026-04-07 10:54 | 34.67997 | -62.01805 | 39222 ft | 503 kts | 13° |
| 2026-04-07 10:55 | 34.74588 | -61.98925 | 39216 ft | 504 kts | 13° |
| 2026-04-07 10:55 | 34.81183 | -61.96043 | 39223 ft | 503 kts | 12° |
| 2026-04-07 10:56 | 34.87760 | -61.93168 | 39212 ft | 501 kts | 12° |
| 2026-04-07 10:56 | 34.94295 | -61.90311 | 39215 ft | 497 kts | 13° |
| 2026-04-07 10:57 | 35.00792 | -61.87463 | 39213 ft | 495 kts | 13° |
| 2026-04-07 10:57 | 35.07268 | -61.84621 | 39214 ft | 494 kts | 13° |
| 2026-04-07 10:58 | 35.13734 | -61.81780 | 39219 ft | 494 kts | 13° |
| 2026-04-07 10:58 | 35.20210 | -61.78930 | 39235 ft | 496 kts | 12° |
| 2026-04-07 10:59 | 35.26712 | -61.76063 | 39222 ft | 497 kts | 12° |
| 2026-04-07 10:59 | 35.33233 | -61.73182 | 39219 ft | 499 kts | 12° |
| 2026-04-07 11:00 | 35.39775 | -61.70286 | 39236 ft | 500 kts | 12° |
| 2026-04-07 11:00 | 35.46335 | -61.67376 | 39221 ft | 502 kts | 12° |
| 2026-04-07 11:01 | 35.52911 | -61.64456 | 39221 ft | 504 kts | 12° |
| 2026-04-07 11:01 | 35.59481 | -61.61530 | 39235 ft | 501 kts | 12° |
| 2026-04-07 11:02 | 35.65973 | -61.58633 | 39217 ft | 499 kts | 12° |
| 2026-04-07 11:02 | 35.72500 | -61.55719 | 39211 ft | 499 kts | 12° |
| 2026-04-07 11:03 | 35.79034 | -61.52799 | 39233 ft | 500 kts | 12° |
| 2026-04-07 11:03 | 35.85592 | -61.49862 | 39213 ft | 502 kts | 12° |
| 2026-04-07 11:04 | 35.92158 | -61.46915 | 39214 ft | 503 kts | 12° |
| 2026-04-07 11:04 | 35.98739 | -61.43955 | 39257 ft | 504 kts | 12° |
| 2026-04-07 11:05 | 36.05333 | -61.40984 | 39222 ft | 505 kts | 12° |
| 2026-04-07 11:05 | 36.11931 | -61.38006 | 39218 ft | 505 kts | 12° |
| 2026-04-07 11:06 | 36.18521 | -61.35025 | 39237 ft | 504 kts | 12° |
| 2026-04-07 11:06 | 36.25103 | -61.32045 | 39208 ft | 503 kts | 12° |
| 2026-04-07 11:07 | 36.31673 | -61.29063 | 39219 ft | 502 kts | 12° |
| 2026-04-07 11:07 | 36.38236 | -61.26079 | 39258 ft | 502 kts | 12° |
| 2026-04-07 11:08 | 36.44800 | -61.23092 | 39231 ft | 502 kts | 12° |
| 2026-04-07 11:08 | 36.51362 | -61.20099 | 39228 ft | 503 kts | 12° |
| 2026-04-07 11:09 | 36.57929 | -61.17098 | 39253 ft | 503 kts | 12° |
| 2026-04-07 11:09 | 36.64506 | -61.14087 | 39227 ft | 504 kts | 12° |
| 2026-04-07 11:10 | 36.71085 | -61.11069 | 39246 ft | 504 kts | 12° |
| 2026-04-07 11:10 | 36.77662 | -61.08046 | 39250 ft | 504 kts | 12° |
| 2026-04-07 11:11 | 36.84198 | -61.05037 | 39237 ft | 504 kts | 12° |
| 2026-04-07 11:11 | 36.90776 | -61.02003 | 39228 ft | 504 kts | 12° |
| 2026-04-07 11:12 | 36.97348 | -60.98967 | 39234 ft | 503 kts | 12° |
| 2026-04-07 11:12 | 37.03917 | -60.95926 | 39244 ft | 503 kts | 12° |
| 2026-04-07 11:13 | 37.10485 | -60.92880 | 39235 ft | 503 kts | 12° |
| 2026-04-07 11:13 | 37.17054 | -60.89828 | 39249 ft | 504 kts | 11° |
| 2026-04-07 11:14 | 37.23625 | -60.86770 | 39243 ft | 504 kts | 12° |
| 2026-04-07 11:14 | 37.30202 | -60.83703 | 39240 ft | 504 kts | 12° |
| 2026-04-07 11:15 | 37.36770 | -60.80633 | 39246 ft | 504 kts | 11° |
| 2026-04-07 11:15 | 37.43345 | -60.77556 | 39241 ft | 504 kts | 11° |
| 2026-04-07 11:16 | 37.49919 | -60.74472 | 39233 ft | 504 kts | 11° |
| 2026-04-07 11:16 | 37.56487 | -60.71386 | 39250 ft | 504 kts | 11° |
| 2026-04-07 11:17 | 37.63015 | -60.68314 | 39239 ft | 504 kts | 11° |
| 2026-04-07 11:17 | 37.69627 | -60.65195 | 39245 ft | 504 kts | 12° |
| 2026-04-07 11:18 | 37.76166 | -60.62106 | 39248 ft | 505 kts | 11° |
| 2026-04-07 11:18 | 37.82754 | -60.58987 | 39244 ft | 506 kts | 11° |
| 2026-04-07 11:19 | 37.89349 | -60.55859 | 39264 ft | 506 kts | 12° |
| 2026-04-07 11:19 | 37.95955 | -60.52719 | 39254 ft | 507 kts | 12° |
| 2026-04-07 11:20 | 38.02564 | -60.49572 | 39247 ft | 508 kts | 12° |
| 2026-04-07 11:20 | 38.09174 | -60.46418 | 39269 ft | 508 kts | 12° |
| 2026-04-07 11:21 | 38.15787 | -60.43256 | 39247 ft | 507 kts | 12° |
| 2026-04-07 11:21 | 38.22390 | -60.40092 | 39244 ft | 507 kts | 12° |
| 2026-04-07 11:22 | 38.28983 | -60.36929 | 39251 ft | 507 kts | 12° |
| 2026-04-07 11:22 | 38.35587 | -60.33754 | 39254 ft | 507 kts | 12° |
| 2026-04-07 11:23 | 38.42197 | -60.30569 | 39256 ft | 508 kts | 12° |
| 2026-04-07 11:23 | 38.48584 | -60.26558 | 39251 ft | 528 kts | 32° |
| 2026-04-07 11:23 | 38.51263 | -60.23283 | 39260 ft | 540 kts | 46° |
| 2026-04-07 11:24 | 38.53350 | -60.19265 | 39251 ft | 546 kts | 60° |
| 2026-04-07 11:24 | 38.56726 | -60.10561 | 39259 ft | 548 kts | 61° |
| 2026-04-07 11:25 | 38.61797 | -59.97482 | 39263 ft | 551 kts | 60° |
| 2026-04-07 11:25 | 38.65279 | -59.88739 | 39259 ft | 552 kts | 60° |
| 2026-04-07 11:26 | 38.68801 | -59.79939 | 39253 ft | 551 kts | 60° |
| 2026-04-07 11:26 | 38.72256 | -59.71274 | 39251 ft | 549 kts | 60° |
| 2026-04-07 11:27 | 38.75712 | -59.62567 | 39252 ft | 547 kts | 60° |
| 2026-04-07 11:27 | 38.79144 | -59.53884 | 39259 ft | 545 kts | 60° |
| 2026-04-07 11:28 | 38.82007 | -59.46627 | 39258 ft | 545 kts | 60° |
| 2026-04-07 11:28 | 38.85420 | -59.37953 | 39264 ft | 545 kts | 60° |
| 2026-04-07 11:29 | 38.88829 | -59.29265 | 39258 ft | 545 kts | 60° |
| 2026-04-07 11:29 | 38.92229 | -59.20576 | 39291 ft | 545 kts | 61° |
| 2026-04-07 11:30 | 38.95606 | -59.11920 | 39263 ft | 546 kts | 61° |
| 2026-04-07 11:30 | 38.99002 | -59.03192 | 39267 ft | 547 kts | 61° |
| 2026-04-07 11:31 | 39.02392 | -58.94450 | 39275 ft | 546 kts | 61° |
| 2026-04-07 11:31 | 39.05777 | -58.85700 | 39266 ft | 547 kts | 61° |
| 2026-04-07 11:32 | 39.09160 | -58.76929 | 39272 ft | 547 kts | 61° |
| 2026-04-07 11:32 | 39.12538 | -58.68144 | 39265 ft | 548 kts | 61° |
| 2026-04-07 11:33 | 39.15914 | -58.59341 | 39292 ft | 549 kts | 62° |
| 2026-04-07 11:33 | 39.19294 | -58.50501 | 39280 ft | 551 kts | 62° |
| 2026-04-07 11:34 | 39.22674 | -58.41634 | 39262 ft | 550 kts | 62° |
| 2026-04-07 11:34 | 39.26043 | -58.32767 | 39302 ft | 550 kts | 62° |
| 2026-04-07 11:35 | 39.29413 | -58.23876 | 39274 ft | 552 kts | 62° |
| 2026-04-07 11:35 | 39.32779 | -58.14966 | 39259 ft | 551 kts | 62° |
| 2026-04-07 11:36 | 39.36127 | -58.06077 | 39265 ft | 550 kts | 62° |
| 2026-04-07 11:36 | 39.39468 | -57.97181 | 39272 ft | 551 kts | 62° |
| 2026-04-07 11:37 | 39.42806 | -57.88268 | 39255 ft | 550 kts | 62° |
| 2026-04-07 11:37 | 39.46133 | -57.79356 | 39262 ft | 550 kts | 62° |
| 2026-04-07 11:38 | 39.49432 | -57.70495 | 39269 ft | 551 kts | 63° |
| 2026-04-07 11:38 | 39.52751 | -57.61549 | 39255 ft | 551 kts | 62° |
| 2026-04-07 11:39 | 39.56064 | -57.52594 | 39263 ft | 551 kts | 62° |
| 2026-04-07 11:39 | 39.59371 | -57.43631 | 39268 ft | 552 kts | 63° |
| 2026-04-07 11:40 | 39.62681 | -57.34631 | 39249 ft | 553 kts | 62° |
| 2026-04-07 11:40 | 39.65979 | -57.25634 | 39259 ft | 552 kts | 63° |
| 2026-04-07 11:41 | 39.69272 | -57.16625 | 39271 ft | 553 kts | 63° |
| 2026-04-07 11:41 | 39.72560 | -57.07599 | 39249 ft | 553 kts | 63° |
| 2026-04-07 11:42 | 39.75843 | -56.98561 | 39254 ft | 552 kts | 63° |
| 2026-04-07 11:42 | 39.79112 | -56.89534 | 39255 ft | 552 kts | 63° |
| 2026-04-07 11:43 | 39.82372 | -56.80503 | 39240 ft | 551 kts | 63° |
| 2026-04-07 11:43 | 39.85618 | -56.71483 | 39251 ft | 550 kts | 63° |
| 2026-04-07 11:44 | 39.88851 | -56.62472 | 39265 ft | 550 kts | 63° |
| 2026-04-07 11:44 | 39.92083 | -56.53437 | 39251 ft | 551 kts | 63° |
| 2026-04-07 11:45 | 39.95312 | -56.44383 | 39251 ft | 551 kts | 63° |
| 2026-04-07 11:45 | 39.98535 | -56.35316 | 39251 ft | 551 kts | 63° |
| 2026-04-07 11:46 | 40.01751 | -56.26237 | 39243 ft | 551 kts | 63° |
| 2026-04-07 11:46 | 40.04959 | -56.17155 | 39245 ft | 551 kts | 64° |
| 2026-04-07 11:47 | 40.08160 | -56.08066 | 39255 ft | 551 kts | 64° |
| 2026-04-07 11:47 | 40.11353 | -55.98967 | 39245 ft | 551 kts | 64° |
| 2026-04-07 11:48 | 40.14539 | -55.89860 | 39241 ft | 551 kts | 64° |
| 2026-04-07 11:48 | 40.17699 | -55.80800 | 39245 ft | 551 kts | 64° |
| 2026-04-07 11:49 | 40.20871 | -55.71677 | 39242 ft | 551 kts | 64° |
| 2026-04-07 11:49 | 40.24035 | -55.62548 | 39228 ft | 550 kts | 64° |
| 2026-04-07 11:50 | 40.27183 | -55.53434 | 39235 ft | 549 kts | 64° |
| 2026-04-07 11:50 | 40.30316 | -55.44334 | 39237 ft | 548 kts | 64° |
| 2026-04-07 11:51 | 40.33440 | -55.35235 | 39240 ft | 548 kts | 64° |
| 2026-04-07 11:51 | 40.36556 | -55.26125 | 39232 ft | 547 kts | 64° |
| 2026-04-07 11:52 | 40.39666 | -55.17008 | 39236 ft | 548 kts | 65° |
| 2026-04-07 11:52 | 40.42770 | -55.07878 | 39235 ft | 548 kts | 65° |
| 2026-04-07 11:53 | 40.45868 | -54.98734 | 39238 ft | 548 kts | 65° |
| 2026-04-07 11:53 | 40.48959 | -54.89581 | 39237 ft | 549 kts | 65° |
| 2026-04-07 11:54 | 40.52046 | -54.80412 | 39234 ft | 549 kts | 65° |
| 2026-04-07 11:54 | 40.55107 | -54.71289 | 39235 ft | 549 kts | 65° |
| 2026-04-07 11:55 | 40.58181 | -54.62098 | 39242 ft | 549 kts | 65° |
| 2026-04-07 11:55 | 40.61253 | -54.52884 | 39246 ft | 550 kts | 65° |
| 2026-04-07 11:56 | 40.64322 | -54.43645 | 39229 ft | 550 kts | 65° |
| 2026-04-07 11:56 | 40.67380 | -54.34411 | 39230 ft | 550 kts | 65° |
| 2026-04-07 11:57 | 40.70425 | -54.25184 | 39234 ft | 549 kts | 65° |
| 2026-04-07 11:57 | 40.73460 | -54.15958 | 39228 ft | 548 kts | 65° |
| 2026-04-07 11:58 | 40.76483 | -54.06737 | 39222 ft | 547 kts | 65° |
| 2026-04-07 11:58 | 40.79490 | -53.97535 | 39229 ft | 546 kts | 66° |
| 2026-04-07 11:59 | 40.82489 | -53.88326 | 39232 ft | 546 kts | 66° |
| 2026-04-07 11:59 | 40.85480 | -53.79111 | 39248 ft | 546 kts | 66° |
| 2026-04-07 12:00 | 40.88471 | -53.69866 | 39233 ft | 548 kts | 66° |
| 2026-04-07 12:00 | 40.91461 | -53.60592 | 39234 ft | 549 kts | 66° |
| 2026-04-07 12:01 | 40.94446 | -53.51302 | 39230 ft | 549 kts | 66° |
| 2026-04-07 12:01 | 40.97428 | -53.41988 | 39232 ft | 550 kts | 66° |
| 2026-04-07 12:02 | 41.00406 | -53.32657 | 39208 ft | 550 kts | 66° |
| 2026-04-07 12:02 | 41.03367 | -53.23344 | 39219 ft | 548 kts | 66° |
| 2026-04-07 12:03 | 41.06317 | -53.14038 | 39226 ft | 547 kts | 66° |
| 2026-04-07 12:03 | 41.09254 | -53.04738 | 39225 ft | 547 kts | 66° |
| 2026-04-07 12:04 | 41.12181 | -52.95438 | 39223 ft | 547 kts | 66° |
| 2026-04-07 12:04 | 41.15103 | -52.86126 | 39235 ft | 547 kts | 67° |
| 2026-04-07 12:05 | 41.18021 | -52.76792 | 39227 ft | 548 kts | 67° |
| 2026-04-07 12:05 | 41.20935 | -52.67437 | 39226 ft | 548 kts | 67° |
| 2026-04-07 12:06 | 41.23843 | -52.58069 | 39231 ft | 549 kts | 67° |
| 2026-04-07 12:06 | 41.26743 | -52.48692 | 39211 ft | 548 kts | 67° |
| 2026-04-07 12:07 | 41.29628 | -52.39333 | 39215 ft | 546 kts | 67° |
| 2026-04-07 12:07 | 41.32499 | -52.29987 | 39229 ft | 546 kts | 67° |
| 2026-04-07 12:08 | 41.35359 | -52.20643 | 39219 ft | 545 kts | 67° |
| 2026-04-07 12:08 | 41.38211 | -52.11292 | 39217 ft | 545 kts | 67° |
| 2026-04-07 12:09 | 41.41055 | -52.01936 | 39215 ft | 545 kts | 68° |
| 2026-04-07 12:09 | 41.43889 | -51.92578 | 39220 ft | 545 kts | 68° |
| 2026-04-07 12:10 | 41.46703 | -51.83254 | 39218 ft | 546 kts | 68° |
| 2026-04-07 12:10 | 41.49527 | -51.73861 | 39198 ft | 546 kts | 68° |
| 2026-04-07 12:11 | 41.52343 | -51.64465 | 39220 ft | 545 kts | 68° |
| 2026-04-07 12:11 | 41.55146 | -51.55075 | 39210 ft | 544 kts | 68° |
| 2026-04-07 12:12 | 41.57939 | -51.45687 | 39215 ft | 544 kts | 68° |
| 2026-04-07 12:12 | 41.60723 | -51.36297 | 39218 ft | 544 kts | 68° |
| 2026-04-07 12:13 | 41.63499 | -51.26898 | 39213 ft | 544 kts | 68° |
| 2026-04-07 12:13 | 41.66268 | -51.17489 | 39204 ft | 544 kts | 68° |
| 2026-04-07 12:14 | 41.69027 | -51.08078 | 39204 ft | 544 kts | 68° |
| 2026-04-07 12:14 | 41.71317 | -51.00243 | 39203 ft | 544 kts | 68° |
| 2026-04-07 12:15 | 41.74065 | -50.90810 | 39167 ft | 544 kts | 68° |
| 2026-04-07 12:15 | 41.76799 | -50.81388 | 39196 ft | 542 kts | 68° |
| 2026-04-07 12:16 | 41.79517 | -50.71986 | 39205 ft | 541 kts | 69° |
| 2026-04-07 12:16 | 41.82225 | -50.62586 | 39196 ft | 540 kts | 69° |
| 2026-04-07 12:17 | 41.84920 | -50.53197 | 39199 ft | 540 kts | 69° |
| 2026-04-07 12:17 | 41.87608 | -50.43796 | 39212 ft | 540 kts | 69° |
| 2026-04-07 12:18 | 41.90289 | -50.34387 | 39201 ft | 540 kts | 69° |
| 2026-04-07 12:18 | 41.92966 | -50.24954 | 39196 ft | 541 kts | 69° |
| 2026-04-07 12:19 | 41.95638 | -50.15504 | 39197 ft | 541 kts | 69° |
| 2026-04-07 12:19 | 41.98304 | -50.06045 | 39180 ft | 541 kts | 69° |
| 2026-04-07 12:20 | 42.01104 | -49.96679 | 39189 ft | 539 kts | 64° |
| 2026-04-07 12:20 | 42.04361 | -49.87614 | 39192 ft | 538 kts | 63° |
| 2026-04-07 12:21 | 42.07656 | -49.78595 | 39194 ft | 537 kts | 63° |
| 2026-04-07 12:21 | 42.10922 | -49.69540 | 39192 ft | 538 kts | 63° |
| 2026-04-07 12:22 | 42.14158 | -49.60454 | 39190 ft | 538 kts | 63° |
| 2026-04-07 12:22 | 42.17381 | -49.51352 | 39199 ft | 538 kts | 64° |
| 2026-04-07 12:23 | 42.20601 | -49.42233 | 39192 ft | 539 kts | 64° |
| 2026-04-07 12:23 | 42.23819 | -49.33101 | 39186 ft | 539 kts | 64° |
| 2026-04-07 12:24 | 42.27032 | -49.23952 | 39201 ft | 539 kts | 64° |
| 2026-04-07 12:24 | 42.30215 | -49.14859 | 39188 ft | 540 kts | 64° |
| 2026-04-07 12:25 | 42.33414 | -49.05691 | 39185 ft | 539 kts | 64° |
| 2026-04-07 12:25 | 42.36606 | -48.96513 | 39187 ft | 539 kts | 64° |
| 2026-04-07 12:26 | 42.39785 | -48.87341 | 39175 ft | 537 kts | 64° |
| 2026-04-07 12:26 | 42.42942 | -48.78202 | 39177 ft | 535 kts | 64° |
| 2026-04-07 12:27 | 42.46085 | -48.69072 | 39173 ft | 534 kts | 64° |
| 2026-04-07 12:27 | 42.49216 | -48.59947 | 39192 ft | 534 kts | 64° |
| 2026-04-07 12:28 | 42.52340 | -48.50815 | 39176 ft | 534 kts | 64° |
| 2026-04-07 12:29 | 42.57015 | -48.37091 | 39175 ft | 534 kts | 64° |
| 2026-04-07 12:29 | 42.60122 | -48.27932 | 39174 ft | 535 kts | 65° |
| 2026-04-07 12:30 | 42.63228 | -48.18745 | 39172 ft | 536 kts | 65° |
| 2026-04-07 12:30 | 42.66329 | -48.09541 | 39170 ft | 536 kts | 65° |
| 2026-04-07 12:31 | 42.69424 | -48.00322 | 39169 ft | 536 kts | 65° |
| 2026-04-07 12:31 | 42.72512 | -47.91096 | 39167 ft | 536 kts | 65° |
| 2026-04-07 12:32 | 42.75594 | -47.81856 | 39165 ft | 536 kts | 65° |
| 2026-04-07 12:32 | 42.78668 | -47.72606 | 39139 ft | 536 kts | 65° |
| 2026-04-07 12:33 | 42.81725 | -47.63379 | 39151 ft | 534 kts | 65° |
| 2026-04-07 12:33 | 42.84765 | -47.54168 | 39153 ft | 532 kts | 65° |
| 2026-04-07 12:34 | 42.87791 | -47.44971 | 39157 ft | 531 kts | 65° |
| 2026-04-07 12:34 | 42.90806 | -47.35776 | 39154 ft | 531 kts | 65° |
| 2026-04-07 12:35 | 42.93815 | -47.26567 | 39149 ft | 532 kts | 65° |
| 2026-04-07 12:35 | 42.96820 | -47.17340 | 39145 ft | 532 kts | 65° |
| 2026-04-07 12:36 | 42.99819 | -47.08100 | 39147 ft | 533 kts | 66° |
| 2026-04-07 12:36 | 43.02814 | -46.98838 | 39134 ft | 533 kts | 66° |
| 2026-04-07 12:37 | 43.05802 | -46.89565 | 39134 ft | 533 kts | 66° |
| 2026-04-07 12:37 | 43.08785 | -46.80277 | 39139 ft | 534 kts | 66° |
| 2026-04-07 12:38 | 43.11764 | -46.70969 | 39129 ft | 534 kts | 66° |
| 2026-04-07 12:38 | 43.14718 | -46.61707 | 39123 ft | 534 kts | 66° |
| 2026-04-07 12:39 | 43.17684 | -46.52374 | 39124 ft | 534 kts | 66° |
| 2026-04-07 12:39 | 43.20637 | -46.43047 | 39109 ft | 533 kts | 66° |
| 2026-04-07 12:40 | 43.23569 | -46.33757 | 39109 ft | 531 kts | 66° |
| 2026-04-07 12:40 | 43.26489 | -46.24471 | 39107 ft | 529 kts | 66° |
| 2026-04-07 12:41 | 43.29395 | -46.15196 | 39115 ft | 529 kts | 66° |
| 2026-04-07 12:41 | 43.32292 | -46.05917 | 39108 ft | 529 kts | 66° |
| 2026-04-07 12:42 | 43.35184 | -45.96623 | 39107 ft | 529 kts | 66° |
| 2026-04-07 12:42 | 43.38072 | -45.87307 | 39112 ft | 530 kts | 67° |
| 2026-04-07 12:43 | 43.40955 | -45.77974 | 39106 ft | 531 kts | 67° |
| 2026-04-07 12:43 | 43.43835 | -45.68619 | 39102 ft | 531 kts | 67° |
| 2026-04-07 12:44 | 43.46711 | -45.59241 | 39098 ft | 532 kts | 67° |
| 2026-04-07 12:44 | 43.49580 | -45.49853 | 39100 ft | 532 kts | 67° |
| 2026-04-07 12:45 | 43.52443 | -45.40448 | 39098 ft | 532 kts | 67° |
| 2026-04-07 12:45 | 43.55300 | -45.31032 | 39094 ft | 532 kts | 67° |
| 2026-04-07 12:46 | 43.58128 | -45.21676 | 39096 ft | 532 kts | 67° |
| 2026-04-07 12:46 | 43.60968 | -45.12244 | 39086 ft | 532 kts | 67° |
| 2026-04-07 12:47 | 43.63801 | -45.02804 | 39084 ft | 532 kts | 68° |
| 2026-04-07 12:47 | 43.66626 | -44.93354 | 39087 ft | 532 kts | 68° |
| 2026-04-07 12:48 | 43.69442 | -44.83898 | 39086 ft | 532 kts | 68° |
| 2026-04-07 12:48 | 43.72252 | -44.74428 | 39088 ft | 533 kts | 68° |
| 2026-04-07 12:49 | 43.75053 | -44.64956 | 39088 ft | 532 kts | 68° |
| 2026-04-07 12:49 | 43.77848 | -44.55464 | 39082 ft | 533 kts | 68° |
| 2026-04-07 12:50 | 43.80638 | -44.45958 | 39092 ft | 533 kts | 68° |
| 2026-04-07 12:50 | 43.83422 | -44.36434 | 39077 ft | 533 kts | 68° |
| 2026-04-07 12:51 | 43.86197 | -44.26906 | 39085 ft | 534 kts | 68° |
| 2026-04-07 12:51 | 43.88965 | -44.17364 | 39084 ft | 534 kts | 68° |
| 2026-04-07 12:52 | 43.91727 | -44.07808 | 39084 ft | 534 kts | 68° |
| 2026-04-07 12:52 | 43.94483 | -43.98236 | 39079 ft | 534 kts | 68° |
| 2026-04-07 12:53 | 43.97228 | -43.88667 | 39085 ft | 533 kts | 68° |
| 2026-04-07 12:53 | 43.99956 | -43.79119 | 39085 ft | 531 kts | 68° |
| 2026-04-07 12:54 | 44.02669 | -43.69586 | 39086 ft | 530 kts | 69° |
| 2026-04-07 12:54 | 44.05369 | -43.60063 | 39093 ft | 530 kts | 69° |
| 2026-04-07 12:55 | 44.08064 | -43.50523 | 39079 ft | 530 kts | 69° |
| 2026-04-07 12:55 | 44.10752 | -43.40968 | 39082 ft | 530 kts | 69° |
| 2026-04-07 12:56 | 44.13433 | -43.31403 | 39083 ft | 531 kts | 69° |
| 2026-04-07 12:56 | 44.16108 | -43.21822 | 39077 ft | 531 kts | 69° |
| 2026-04-07 12:57 | 44.18778 | -43.12222 | 39086 ft | 532 kts | 69° |
| 2026-04-07 12:57 | 44.21442 | -43.02604 | 39085 ft | 532 kts | 69° |
| 2026-04-07 12:58 | 44.24084 | -42.93030 | 39076 ft | 533 kts | 69° |
| 2026-04-07 12:58 | 44.26736 | -42.83380 | 39074 ft | 533 kts | 69° |
| 2026-04-07 12:59 | 44.29380 | -42.73723 | 39078 ft | 533 kts | 69° |
| 2026-04-07 12:59 | 44.32015 | -42.64057 | 39080 ft | 532 kts | 69° |
| 2026-04-07 13:00 | 44.34636 | -42.54407 | 39077 ft | 530 kts | 69° |
| 2026-04-07 13:00 | 44.37238 | -42.44788 | 39084 ft | 529 kts | 69° |
| 2026-04-07 13:01 | 44.39392 | -42.36798 | 39071 ft | 529 kts | 69° |
| 2026-04-07 13:01 | 44.41972 | -42.27184 | 39092 ft | 527 kts | 70° |
| 2026-04-07 13:02 | 44.44542 | -42.17574 | 39082 ft | 527 kts | 70° |
| 2026-04-07 13:02 | 44.47102 | -42.07964 | 39078 ft | 527 kts | 70° |
| 2026-04-07 13:03 | 44.49654 | -41.98345 | 39074 ft | 527 kts | 70° |
| 2026-04-07 13:03 | 44.52199 | -41.88714 | 39074 ft | 528 kts | 70° |
| 2026-04-07 13:04 | 44.54740 | -41.79056 | 39083 ft | 528 kts | 70° |
| 2026-04-07 13:04 | 44.57281 | -41.69366 | 39072 ft | 530 kts | 70° |
| 2026-04-07 13:05 | 44.59814 | -41.59657 | 39080 ft | 530 kts | 70° |
| 2026-04-07 13:05 | 44.62339 | -41.49943 | 39080 ft | 530 kts | 70° |
| 2026-04-07 13:06 | 44.64855 | -41.40224 | 39081 ft | 529 kts | 70° |
| 2026-04-07 13:06 | 44.67360 | -41.30505 | 39077 ft | 529 kts | 70° |
| 2026-04-07 13:07 | 44.69856 | -41.20785 | 39089 ft | 528 kts | 70° |
| 2026-04-07 13:07 | 44.72337 | -41.11081 | 39084 ft | 527 kts | 70° |
| 2026-04-07 13:08 | 44.74803 | -41.01391 | 39086 ft | 526 kts | 70° |
| 2026-04-07 13:08 | 44.77259 | -40.91705 | 39083 ft | 525 kts | 70° |
| 2026-04-07 13:09 | 44.79707 | -40.82009 | 39078 ft | 526 kts | 70° |
| 2026-04-07 13:09 | 44.82147 | -40.72304 | 39086 ft | 526 kts | 70° |
| 2026-04-07 13:10 | 44.84584 | -40.62569 | 39099 ft | 528 kts | 70° |
| 2026-04-07 13:10 | 44.87017 | -40.52808 | 39079 ft | 528 kts | 70° |
| 2026-04-07 13:11 | 44.89442 | -40.43039 | 39094 ft | 528 kts | 70° |
| 2026-04-07 13:11 | 44.91856 | -40.33270 | 39093 ft | 527 kts | 70° |
| 2026-04-07 13:12 | 44.94262 | -40.23494 | 39078 ft | 527 kts | 71° |
| 2026-04-07 13:12 | 44.96660 | -40.13705 | 39098 ft | 528 kts | 70° |
| 2026-04-07 13:13 | 44.99057 | -40.03886 | 39086 ft | 530 kts | 71° |
| 2026-04-07 13:13 | 45.01014 | -39.93863 | 39090 ft | 528 kts | 79° |
| 2026-04-07 13:14 | 45.02437 | -39.83767 | 39086 ft | 526 kts | 79° |
| 2026-04-07 13:14 | 45.03836 | -39.73615 | 39080 ft | 526 kts | 79° |
| 2026-04-07 13:15 | 45.05264 | -39.63468 | 39094 ft | 525 kts | 79° |
| 2026-04-07 13:15 | 45.06704 | -39.53339 | 39091 ft | 525 kts | 79° |
| 2026-04-07 13:16 | 45.08139 | -39.43207 | 39091 ft | 526 kts | 79° |
| 2026-04-07 13:16 | 45.09565 | -39.33051 | 39103 ft | 527 kts | 79° |
| 2026-04-07 13:17 | 45.10982 | -39.22876 | 39104 ft | 527 kts | 79° |
| 2026-04-07 13:17 | 45.12392 | -39.12680 | 39104 ft | 528 kts | 79° |
| 2026-04-07 13:18 | 45.13794 | -39.02472 | 39108 ft | 528 kts | 79° |
| 2026-04-07 13:18 | 45.15186 | -38.92260 | 39112 ft | 528 kts | 79° |
| 2026-04-07 13:19 | 45.16568 | -38.82059 | 39109 ft | 527 kts | 79° |
| 2026-04-07 13:19 | 45.17937 | -38.71871 | 39108 ft | 526 kts | 79° |
| 2026-04-07 13:20 | 45.19296 | -38.61693 | 39128 ft | 525 kts | 79° |
| 2026-04-07 13:20 | 45.20647 | -38.51505 | 39114 ft | 527 kts | 79° |
| 2026-04-07 13:21 | 45.21993 | -38.41277 | 39124 ft | 528 kts | 79° |
| 2026-04-07 13:21 | 45.23332 | -38.31033 | 39118 ft | 529 kts | 79° |
| 2026-04-07 13:22 | 45.24663 | -38.20769 | 39128 ft | 529 kts | 79° |
| 2026-04-07 13:22 | 45.25985 | -38.10497 | 39133 ft | 529 kts | 79° |
| 2026-04-07 13:23 | 45.27296 | -38.00241 | 39118 ft | 527 kts | 79° |
| 2026-04-07 13:23 | 45.28591 | -37.90026 | 39122 ft | 525 kts | 79° |
| 2026-04-07 13:24 | 45.29865 | -37.79904 | 39122 ft | 523 kts | 79° |
| 2026-04-07 13:24 | 45.31136 | -37.69736 | 39126 ft | 523 kts | 79° |
| 2026-04-07 13:25 | 45.32398 | -37.59562 | 39129 ft | 523 kts | 80° |
| 2026-04-07 13:25 | 45.33651 | -37.49381 | 39136 ft | 523 kts | 80° |
| 2026-04-07 13:26 | 45.34896 | -37.39184 | 39143 ft | 524 kts | 80° |
| 2026-04-07 13:26 | 45.36134 | -37.28964 | 39135 ft | 525 kts | 80° |
| 2026-04-07 13:27 | 45.37364 | -37.18733 | 39132 ft | 525 kts | 80° |
| 2026-04-07 13:27 | 45.38586 | -37.08495 | 39130 ft | 524 kts | 80° |
| 2026-04-07 13:28 | 45.39793 | -36.98295 | 39145 ft | 522 kts | 80° |
| 2026-04-07 13:28 | 45.40988 | -36.88106 | 39138 ft | 522 kts | 80° |
| 2026-04-07 13:29 | 45.42176 | -36.77911 | 39138 ft | 522 kts | 80° |
| 2026-04-07 13:29 | 45.43355 | -36.67708 | 39146 ft | 522 kts | 80° |
| 2026-04-07 13:30 | 45.44525 | -36.57493 | 39145 ft | 523 kts | 80° |
| 2026-04-07 13:30 | 45.45689 | -36.47253 | 39145 ft | 524 kts | 80° |
| 2026-04-07 13:31 | 45.46845 | -36.36995 | 39156 ft | 525 kts | 80° |
| 2026-04-07 13:31 | 45.47993 | -36.26721 | 39155 ft | 525 kts | 80° |
| 2026-04-07 13:32 | 45.49133 | -36.16438 | 39137 ft | 525 kts | 80° |
| 2026-04-07 13:32 | 45.50260 | -36.06175 | 39148 ft | 524 kts | 80° |
| 2026-04-07 13:33 | 45.51378 | -35.95919 | 39160 ft | 523 kts | 80° |
| 2026-04-07 13:33 | 45.53036 | -35.80532 | 39157 ft | 523 kts | 80° |
| 2026-04-07 13:34 | 45.54129 | -35.70279 | 39162 ft | 523 kts | 80° |
| 2026-04-07 13:34 | 45.55215 | -35.60000 | 39168 ft | 524 kts | 80° |
| 2026-04-07 13:35 | 45.56292 | -35.49717 | 39169 ft | 524 kts | 80° |
| 2026-04-07 13:35 | 45.57361 | -35.39421 | 39166 ft | 525 kts | 80° |
| 2026-04-07 13:36 | 45.58420 | -35.29116 | 39174 ft | 525 kts | 80° |
| 2026-04-07 13:36 | 45.59465 | -35.18867 | 39161 ft | 525 kts | 79° |
| 2026-04-07 13:37 | 45.60506 | -35.08554 | 39168 ft | 524 kts | 80° |
| 2026-04-07 13:37 | 45.61537 | -34.98250 | 39169 ft | 524 kts | 80° |
| 2026-04-07 13:38 | 45.62557 | -34.87951 | 39180 ft | 524 kts | 79° |
| 2026-04-07 13:38 | 45.63570 | -34.77636 | 39172 ft | 524 kts | 79° |
| 2026-04-07 13:39 | 45.64575 | -34.67310 | 39168 ft | 525 kts | 80° |
| 2026-04-07 13:39 | 45.65569 | -34.56983 | 39170 ft | 525 kts | 80° |
| 2026-04-07 13:40 | 45.66555 | -34.46639 | 39183 ft | 525 kts | 79° |
| 2026-04-07 13:40 | 45.67533 | -34.36289 | 39172 ft | 525 kts | 79° |
| 2026-04-07 13:41 | 45.68501 | -34.25931 | 39174 ft | 525 kts | 80° |
| 2026-04-07 13:41 | 45.69460 | -34.15577 | 39172 ft | 525 kts | 80° |
| 2026-04-07 13:42 | 45.70409 | -34.05217 | 39199 ft | 526 kts | 80° |
| 2026-04-07 13:42 | 45.71351 | -33.94831 | 39189 ft | 527 kts | 80° |
| 2026-04-07 13:43 | 45.72284 | -33.84430 | 39183 ft | 527 kts | 80° |
| 2026-04-07 13:43 | 45.73208 | -33.74025 | 39176 ft | 527 kts | 80° |
| 2026-04-07 13:44 | 45.74124 | -33.63605 | 39180 ft | 527 kts | 80° |
| 2026-04-07 13:44 | 45.75029 | -33.53191 | 39180 ft | 527 kts | 80° |
| 2026-04-07 13:45 | 45.75925 | -33.42776 | 39188 ft | 527 kts | 80° |
| 2026-04-07 13:45 | 45.76811 | -33.32354 | 39178 ft | 527 kts | 80° |
| 2026-04-07 13:46 | 45.77539 | -33.23702 | 39202 ft | 525 kts | 80° |
| 2026-04-07 13:46 | 45.78406 | -33.13311 | 39195 ft | 525 kts | 80° |
| 2026-04-07 13:47 | 45.79263 | -33.02917 | 39191 ft | 525 kts | 80° |
| 2026-04-07 13:47 | 45.80110 | -32.92524 | 39191 ft | 525 kts | 80° |
| 2026-04-07 13:48 | 45.80947 | -32.82134 | 39196 ft | 525 kts | 80° |
| 2026-04-07 13:48 | 45.81775 | -32.71732 | 39199 ft | 525 kts | 80° |
| 2026-04-07 13:49 | 45.82594 | -32.61330 | 39197 ft | 525 kts | 80° |
| 2026-04-07 13:49 | 45.83403 | -32.50921 | 39202 ft | 525 kts | 80° |
| 2026-04-07 13:50 | 45.84203 | -32.40512 | 39201 ft | 525 kts | 80° |
| 2026-04-07 13:50 | 45.84993 | -32.30100 | 39202 ft | 525 kts | 80° |
| 2026-04-07 13:51 | 45.85773 | -32.19700 | 39194 ft | 524 kts | 80° |
| 2026-04-07 13:51 | 45.86542 | -32.09314 | 39210 ft | 523 kts | 80° |
| 2026-04-07 13:52 | 45.87302 | -31.98923 | 39204 ft | 523 kts | 80° |
| 2026-04-07 13:52 | 45.88051 | -31.88545 | 39211 ft | 523 kts | 80° |
| 2026-04-07 13:53 | 45.88792 | -31.78158 | 39206 ft | 523 kts | 80° |
| 2026-04-07 13:53 | 45.89518 | -31.67839 | 39206 ft | 523 kts | 80° |
| 2026-04-07 13:54 | 45.90239 | -31.57451 | 39210 ft | 523 kts | 80° |
| 2026-04-07 13:54 | 45.90956 | -31.46986 | 39220 ft | 523 kts | 80° |
| 2026-04-07 13:55 | 45.91654 | -31.36656 | 39207 ft | 523 kts | 80° |
| 2026-04-07 13:55 | 45.92345 | -31.26275 | 39209 ft | 522 kts | 80° |
| 2026-04-07 13:56 | 45.93027 | -31.15907 | 39215 ft | 521 kts | 80° |
| 2026-04-07 13:56 | 45.93699 | -31.05543 | 39218 ft | 521 kts | 80° |
| 2026-04-07 13:57 | 45.94361 | -30.95179 | 39221 ft | 521 kts | 80° |
| 2026-04-07 13:57 | 45.95015 | -30.84808 | 39217 ft | 521 kts | 81° |
| 2026-04-07 13:58 | 45.95659 | -30.74434 | 39210 ft | 521 kts | 81° |
| 2026-04-07 13:58 | 45.96292 | -30.64067 | 39217 ft | 521 kts | 81° |
| 2026-04-07 13:59 | 45.96918 | -30.53683 | 39222 ft | 522 kts | 81° |
| 2026-04-07 13:59 | 45.97535 | -30.43287 | 39207 ft | 522 kts | 81° |
| 2026-04-07 14:00 | 45.98141 | -30.32893 | 39213 ft | 521 kts | 81° |
| 2026-04-07 14:00 | 45.98738 | -30.22516 | 39232 ft | 521 kts | 81° |
| 2026-04-07 14:01 | 45.99325 | -30.12143 | 39226 ft | 520 kts | 81° |
| 2026-04-07 14:01 | 45.99911 | -30.01781 | 39219 ft | 519 kts | 79° |
| 2026-04-07 14:02 | 46.01106 | -29.91624 | 39222 ft | 513 kts | 72° |
| 2026-04-07 14:02 | 46.02603 | -29.81649 | 39239 ft | 514 kts | 72° |
| 2026-04-07 14:03 | 46.04102 | -29.71585 | 39221 ft | 515 kts | 72° |
| 2026-04-07 14:03 | 46.05561 | -29.61484 | 39219 ft | 516 kts | 73° |
| 2026-04-07 14:04 | 46.06997 | -29.51362 | 39215 ft | 516 kts | 73° |
| 2026-04-07 14:04 | 46.08421 | -29.41233 | 39215 ft | 516 kts | 73° |
| 2026-04-07 14:05 | 46.09839 | -29.31092 | 39218 ft | 516 kts | 73° |
| 2026-04-07 14:05 | 46.11250 | -29.20950 | 39217 ft | 516 kts | 73° |
| 2026-04-07 14:06 | 46.12652 | -29.10802 | 39206 ft | 516 kts | 73° |
| 2026-04-07 14:06 | 46.14042 | -29.00665 | 39229 ft | 515 kts | 73° |
| 2026-04-07 14:07 | 46.15421 | -28.90543 | 39213 ft | 514 kts | 73° |
| 2026-04-07 14:07 | 46.16790 | -28.80427 | 39213 ft | 513 kts | 73° |
| 2026-04-07 14:08 | 46.18148 | -28.70314 | 39211 ft | 513 kts | 73° |
| 2026-04-07 14:08 | 46.19498 | -28.60197 | 39222 ft | 513 kts | 73° |
| 2026-04-07 14:09 | 46.20839 | -28.50071 | 39209 ft | 514 kts | 73° |
| 2026-04-07 14:09 | 46.22172 | -28.39938 | 39212 ft | 514 kts | 73° |
| 2026-04-07 14:10 | 46.23496 | -28.29795 | 39215 ft | 514 kts | 73° |
| 2026-04-07 14:10 | 46.24802 | -28.19711 | 39221 ft | 515 kts | 73° |
| 2026-04-07 14:11 | 46.26112 | -28.09532 | 39211 ft | 516 kts | 73° |
| 2026-04-07 14:11 | 46.27418 | -27.99316 | 39329 ft | 518 kts | 74° |
| 2026-04-07 14:12 | 46.28068 | -27.94202 | 39585 ft | 517 kts | 74° |
| 2026-04-07 14:12 | 46.28712 | -27.89097 | 39883 ft | 515 kts | 74° |
| 2026-04-07 14:12 | 46.29351 | -27.84020 | 40191 ft | 513 kts | 75° |
| 2026-04-07 14:12 | 46.29989 | -27.78936 | 40366 ft | 514 kts | 75° |
| 2026-04-07 14:13 | 46.30626 | -27.73850 | 40595 ft | 513 kts | 75° |
| 2026-04-07 14:13 | 46.31258 | -27.68780 | 40841 ft | 512 kts | 75° |
| 2026-04-07 14:13 | 46.31886 | -27.63717 | 41090 ft | 511 kts | 75° |
| 2026-04-07 14:13 | 46.32513 | -27.58646 | 41151 ft | 513 kts | 75° |
| 2026-04-07 14:14 | 46.33766 | -27.48474 | 41201 ft | 513 kts | 75° |
| 2026-04-07 14:14 | 46.34998 | -27.38360 | 41207 ft | 507 kts | 75° |
| 2026-04-07 14:15 | 46.36210 | -27.28336 | 41197 ft | 503 kts | 75° |
| 2026-04-07 14:15 | 46.37409 | -27.18367 | 41206 ft | 502 kts | 75° |
| 2026-04-07 14:16 | 46.38601 | -27.08388 | 41214 ft | 503 kts | 75° |
| 2026-04-07 14:16 | 46.39779 | -26.98448 | 41222 ft | 505 kts | 75° |
| 2026-04-07 14:17 | 46.40958 | -26.88404 | 41221 ft | 506 kts | 76° |
| 2026-04-07 14:17 | 46.42131 | -26.78334 | 41221 ft | 507 kts | 76° |
| 2026-04-07 14:18 | 46.43297 | -26.68242 | 41220 ft | 508 kts | 76° |
| 2026-04-07 14:18 | 46.44463 | -26.58066 | 41232 ft | 508 kts | 75° |
| 2026-04-07 14:19 | 46.45606 | -26.48016 | 41238 ft | 509 kts | 76° |
| 2026-04-07 14:19 | 46.46746 | -26.37900 | 41238 ft | 508 kts | 76° |
| 2026-04-07 14:20 | 46.47876 | -26.27789 | 41237 ft | 507 kts | 76° |
| 2026-04-07 14:20 | 46.48997 | -26.17686 | 41243 ft | 507 kts | 76° |
| 2026-04-07 14:21 | 46.50108 | -26.07594 | 41239 ft | 506 kts | 76° |
| 2026-04-07 14:21 | 46.51208 | -25.97503 | 41247 ft | 505 kts | 76° |
| 2026-04-07 14:22 | 46.52298 | -25.87430 | 41244 ft | 505 kts | 76° |
| 2026-04-07 14:22 | 46.53378 | -25.77351 | 41265 ft | 505 kts | 75° |
| 2026-04-07 14:23 | 46.54450 | -25.67272 | 41256 ft | 505 kts | 76° |
| 2026-04-07 14:23 | 46.55511 | -25.57203 | 41258 ft | 504 kts | 76° |
| 2026-04-07 14:24 | 46.56563 | -25.47134 | 41258 ft | 504 kts | 76° |
| 2026-04-07 14:24 | 46.57606 | -25.37057 | 41258 ft | 504 kts | 76° |
| 2026-04-07 14:25 | 46.58641 | -25.26974 | 41260 ft | 504 kts | 76° |
| 2026-04-07 14:25 | 46.59667 | -25.16888 | 41261 ft | 505 kts | 76° |
| 2026-04-07 14:26 | 46.60686 | -25.06787 | 41268 ft | 505 kts | 76° |
| 2026-04-07 14:26 | 46.61695 | -24.96683 | 41275 ft | 505 kts | 76° |
| 2026-04-07 14:27 | 46.62694 | -24.86576 | 41265 ft | 505 kts | 76° |
| 2026-04-07 14:27 | 46.63684 | -24.76476 | 41270 ft | 504 kts | 76° |
| 2026-04-07 14:28 | 46.64664 | -24.66384 | 41272 ft | 504 kts | 76° |
| 2026-04-07 14:28 | 46.65635 | -24.56292 | 41271 ft | 503 kts | 76° |
| 2026-04-07 14:29 | 46.66596 | -24.46216 | 41281 ft | 502 kts | 76° |
| 2026-04-07 14:29 | 46.67547 | -24.36141 | 41284 ft | 502 kts | 76° |
| 2026-04-07 14:30 | 46.68487 | -24.26079 | 41284 ft | 501 kts | 76° |
| 2026-04-07 14:30 | 46.69419 | -24.16018 | 41305 ft | 501 kts | 77° |
| 2026-04-07 14:31 | 46.70333 | -24.06037 | 41282 ft | 499 kts | 76° |
| 2026-04-07 14:31 | 46.71240 | -23.96034 | 41283 ft | 497 kts | 77° |
| 2026-04-07 14:32 | 46.72136 | -23.86061 | 41296 ft | 496 kts | 77° |
| 2026-04-07 14:32 | 46.73023 | -23.76110 | 41314 ft | 495 kts | 77° |
| 2026-04-07 14:33 | 46.73899 | -23.66168 | 41301 ft | 494 kts | 77° |
| 2026-04-07 14:33 | 46.74619 | -23.57913 | 41297 ft | 493 kts | 77° |
| 2026-04-07 14:34 | 46.75476 | -23.47998 | 41302 ft | 493 kts | 77° |
| 2026-04-07 14:34 | 46.76325 | -23.38082 | 41324 ft | 493 kts | 77° |
| 2026-04-07 14:35 | 46.77166 | -23.28149 | 41308 ft | 493 kts | 77° |
| 2026-04-07 14:35 | 46.77997 | -23.18220 | 41300 ft | 493 kts | 77° |
| 2026-04-07 14:36 | 46.78819 | -23.08304 | 41308 ft | 492 kts | 78° |
| 2026-04-07 14:36 | 46.79632 | -22.98383 | 41306 ft | 492 kts | 78° |
| 2026-04-07 14:37 | 46.80436 | -22.88470 | 41316 ft | 492 kts | 78° |
| 2026-04-07 14:37 | 46.81232 | -22.78553 | 41308 ft | 491 kts | 78° |
| 2026-04-07 14:38 | 46.82017 | -22.68649 | 41309 ft | 491 kts | 78° |
| 2026-04-07 14:38 | 46.82794 | -22.58751 | 41310 ft | 491 kts | 78° |
| 2026-04-07 14:39 | 46.83945 | -22.43876 | 41320 ft | 492 kts | 78° |
| 2026-04-07 14:40 | 46.84701 | -22.33952 | 41312 ft | 492 kts | 78° |
| 2026-04-07 14:40 | 46.85449 | -22.24024 | 41312 ft | 491 kts | 78° |
| 2026-04-07 14:41 | 46.86188 | -22.14100 | 41334 ft | 491 kts | 79° |
| 2026-04-07 14:41 | 46.86919 | -22.04158 | 41315 ft | 492 kts | 79° |
| 2026-04-07 14:42 | 46.87642 | -21.94216 | 41312 ft | 492 kts | 79° |
| 2026-04-07 14:42 | 46.88357 | -21.84260 | 41312 ft | 492 kts | 79° |
| 2026-04-07 14:43 | 46.89058 | -21.74369 | 41310 ft | 492 kts | 79° |
| 2026-04-07 14:43 | 46.89761 | -21.64338 | 41315 ft | 493 kts | 79° |
| 2026-04-07 14:44 | 46.90447 | -21.54418 | 41313 ft | 494 kts | 79° |
| 2026-04-07 14:44 | 46.91129 | -21.44422 | 41305 ft | 494 kts | 79° |
| 2026-04-07 14:45 | 46.91803 | -21.34416 | 41309 ft | 495 kts | 79° |
| 2026-04-07 14:45 | 46.92469 | -21.24403 | 41307 ft | 495 kts | 79° |
| 2026-04-07 14:46 | 46.93126 | -21.14383 | 41308 ft | 495 kts | 79° |
| 2026-04-07 14:46 | 46.93774 | -21.04358 | 41310 ft | 495 kts | 79° |
| 2026-04-07 14:47 | 46.94414 | -20.94329 | 41308 ft | 495 kts | 80° |
| 2026-04-07 14:47 | 46.95046 | -20.84295 | 41308 ft | 496 kts | 80° |
| 2026-04-07 14:48 | 46.95669 | -20.74248 | 41310 ft | 496 kts | 80° |
| 2026-04-07 14:48 | 46.96284 | -20.64188 | 41306 ft | 496 kts | 80° |
| 2026-04-07 14:49 | 46.96890 | -20.54131 | 41302 ft | 496 kts | 80° |
| 2026-04-07 14:49 | 46.97488 | -20.44061 | 41310 ft | 497 kts | 80° |
| 2026-04-07 14:50 | 46.98078 | -20.33985 | 41300 ft | 497 kts | 80° |
| 2026-04-07 14:50 | 46.98659 | -20.23898 | 41294 ft | 497 kts | 80° |
| 2026-04-07 14:51 | 46.99231 | -20.13813 | 41294 ft | 497 kts | 80° |
| 2026-04-07 14:51 | 46.99795 | -20.03726 | 41309 ft | 497 kts | 80° |
| 2026-04-07 14:52 | 47.00259 | -19.93630 | 41291 ft | 498 kts | 83° |
| 2026-04-07 14:52 | 47.00437 | -19.83490 | 41288 ft | 498 kts | 84° |
| 2026-04-07 14:53 | 47.00570 | -19.73353 | 41279 ft | 497 kts | 84° |
| 2026-04-07 14:53 | 47.00735 | -19.63234 | 41291 ft | 497 kts | 84° |
| 2026-04-07 14:54 | 47.00916 | -19.53128 | 41277 ft | 496 kts | 84° |
| 2026-04-07 14:54 | 47.01094 | -19.43040 | 41277 ft | 495 kts | 84° |
| 2026-04-07 14:55 | 47.01261 | -19.32957 | 41275 ft | 495 kts | 84° |
| 2026-04-07 14:55 | 47.01417 | -19.22956 | 41287 ft | 494 kts | 84° |
| 2026-04-07 14:56 | 47.01564 | -19.12892 | 41277 ft | 494 kts | 84° |
| 2026-04-07 14:56 | 47.01701 | -19.02844 | 41266 ft | 493 kts | 84° |
| 2026-04-07 14:57 | 47.01831 | -18.92750 | 41265 ft | 492 kts | 84° |
| 2026-04-07 14:57 | 47.01951 | -18.82734 | 41268 ft | 491 kts | 84° |
| 2026-04-07 14:58 | 47.02062 | -18.72794 | 41280 ft | 491 kts | 85° |
| 2026-04-07 14:58 | 47.02164 | -18.62812 | 41247 ft | 489 kts | 85° |
| 2026-04-07 14:59 | 47.02257 | -18.52860 | 41247 ft | 488 kts | 85° |
| 2026-04-07 14:59 | 47.02342 | -18.42923 | 41248 ft | 487 kts | 85° |
| 2026-04-07 15:00 | 47.02419 | -18.32994 | 41258 ft | 487 kts | 85° |
| 2026-04-07 15:00 | 47.02486 | -18.23079 | 41241 ft | 486 kts | 85° |
| 2026-04-07 15:01 | 47.02545 | -18.13183 | 41235 ft | 485 kts | 85° |
| 2026-04-07 15:01 | 47.02595 | -18.03312 | 41232 ft | 484 kts | 85° |
| 2026-04-07 15:02 | 47.02636 | -17.93451 | 41230 ft | 484 kts | 85° |
| 2026-04-07 15:02 | 47.02670 | -17.83589 | 41242 ft | 484 kts | 86° |
| 2026-04-07 15:03 | 47.02695 | -17.73730 | 41223 ft | 484 kts | 86° |
| 2026-04-07 15:03 | 47.02711 | -17.63873 | 41220 ft | 484 kts | 86° |
| 2026-04-07 15:04 | 47.02718 | -17.54017 | 41218 ft | 483 kts | 86° |
| 2026-04-07 15:04 | 47.02718 | -17.44163 | 41219 ft | 484 kts | 86° |
| 2026-04-07 15:05 | 47.02709 | -17.34309 | 41212 ft | 484 kts | 86° |
| 2026-04-07 15:05 | 47.02691 | -17.24452 | 41210 ft | 484 kts | 87° |
| 2026-04-07 15:06 | 47.02664 | -17.14599 | 41201 ft | 484 kts | 87° |
| 2026-04-07 15:06 | 47.02630 | -17.04740 | 41199 ft | 484 kts | 87° |
| 2026-04-07 15:07 | 47.02587 | -16.94887 | 41193 ft | 484 kts | 87° |
| 2026-04-07 15:07 | 47.02535 | -16.85029 | 41196 ft | 484 kts | 87° |
| 2026-04-07 15:08 | 47.02475 | -16.75170 | 41196 ft | 484 kts | 87° |
| 2026-04-07 15:08 | 47.02407 | -16.65314 | 41196 ft | 484 kts | 87° |
| 2026-04-07 15:09 | 47.02330 | -16.55452 | 41184 ft | 484 kts | 88° |
| 2026-04-07 15:09 | 47.02245 | -16.45604 | 41186 ft | 483 kts | 87° |
| 2026-04-07 15:10 | 47.02151 | -16.35766 | 41173 ft | 482 kts | 88° |
| 2026-04-07 15:10 | 47.02049 | -16.25948 | 41168 ft | 482 kts | 87° |
| 2026-04-07 15:11 | 47.01941 | -16.16131 | 41173 ft | 481 kts | 86° |
| 2026-04-07 15:11 | 47.01821 | -16.06334 | 41166 ft | 481 kts | 89° |
| 2026-04-07 15:12 | 47.01694 | -15.96550 | 41163 ft | 480 kts | 88° |
| 2026-04-07 15:12 | 47.01559 | -15.86765 | 41169 ft | 480 kts | 87° |
| 2026-04-07 15:13 | 47.01415 | -15.76992 | 41161 ft | 480 kts | 88° |
| 2026-04-07 15:13 | 47.01264 | -15.67202 | 41153 ft | 481 kts | 88° |
| 2026-04-07 15:14 | 47.01105 | -15.57407 | 41150 ft | 481 kts | 88° |
| 2026-04-07 15:14 | 47.00936 | -15.47610 | 41136 ft | 481 kts | 89° |
| 2026-04-07 15:15 | 47.00759 | -15.37818 | 41131 ft | 481 kts | 90° |
| 2026-04-07 15:15 | 47.00576 | -15.28080 | 41132 ft | 481 kts | 90° |
| 2026-04-07 15:16 | 47.00382 | -15.18276 | 41126 ft | 481 kts | 90° |
| 2026-04-07 15:16 | 47.00182 | -15.08490 | 41130 ft | 480 kts | 91° |
| 2026-04-07 15:17 | 47.00475 | -14.98753 | 41137 ft | 478 kts | 80° |
| 2026-04-07 15:17 | 47.01918 | -14.89294 | 41104 ft | 476 kts | 74° |
| 2026-04-07 15:18 | 47.03730 | -14.79958 | 41115 ft | 476 kts | 73° |
| 2026-04-07 15:18 | 47.05538 | -14.70601 | 41107 ft | 477 kts | 74° |
| 2026-04-07 15:19 | 47.07028 | -14.62736 | 41106 ft | 478 kts | 74° |
| 2026-04-07 15:19 | 47.08784 | -14.53329 | 41097 ft | 478 kts | 75° |
| 2026-04-07 15:20 | 47.10517 | -14.43975 | 41093 ft | 478 kts | 75° |
| 2026-04-07 15:20 | 47.12255 | -14.34549 | 41092 ft | 478 kts | 75° |
| 2026-04-07 15:21 | 47.13986 | -14.25119 | 41089 ft | 478 kts | 75° |
| 2026-04-07 15:21 | 47.15710 | -14.15682 | 41089 ft | 478 kts | 75° |
| 2026-04-07 15:22 | 47.17423 | -14.06259 | 41081 ft | 477 kts | 75° |
| 2026-04-07 15:22 | 47.19125 | -13.96842 | 41078 ft | 476 kts | 75° |
| 2026-04-07 15:23 | 47.20817 | -13.87434 | 41078 ft | 476 kts | 75° |
| 2026-04-07 15:23 | 47.22502 | -13.78018 | 41076 ft | 476 kts | 76° |
| 2026-04-07 15:24 | 47.24177 | -13.68610 | 41075 ft | 475 kts | 76° |
| 2026-04-07 15:24 | 47.25843 | -13.59199 | 41068 ft | 475 kts | 76° |
| 2026-04-07 15:25 | 47.27501 | -13.49783 | 41065 ft | 475 kts | 77° |
| 2026-04-07 15:25 | 47.29150 | -13.40372 | 41064 ft | 475 kts | 78° |
| 2026-04-07 15:26 | 47.30794 | -13.30943 | 41051 ft | 476 kts | 78° |
| 2026-04-07 15:26 | 47.32435 | -13.21481 | 41056 ft | 477 kts | 77° |
| 2026-04-07 15:27 | 47.34074 | -13.11981 | 41050 ft | 479 kts | 77° |
| 2026-04-07 15:27 | 47.35707 | -13.02443 | 41046 ft | 480 kts | 77° |
| 2026-04-07 15:28 | 47.37337 | -12.92885 | 41044 ft | 481 kts | 78° |
| 2026-04-07 15:28 | 47.38961 | -12.83306 | 41041 ft | 481 kts | 78° |
| 2026-04-07 15:29 | 47.40579 | -12.73716 | 41044 ft | 481 kts | 78° |
| 2026-04-07 15:29 | 47.42188 | -12.64124 | 41039 ft | 481 kts | 78° |
| 2026-04-07 15:30 | 47.43787 | -12.54541 | 41025 ft | 481 kts | 78° |
| 2026-04-07 15:30 | 47.45371 | -12.44996 | 41039 ft | 482 kts | 78° |
| 2026-04-07 15:31 | 47.46956 | -12.35377 | 41033 ft | 483 kts | 78° |
| 2026-04-07 15:31 | 47.48540 | -12.25719 | 41030 ft | 484 kts | 78° |
| 2026-04-07 15:32 | 47.50117 | -12.16049 | 41027 ft | 484 kts | 78° |
| 2026-04-07 15:32 | 47.51681 | -12.06364 | 41027 ft | 484 kts | 78° |
| 2026-04-07 15:33 | 47.53243 | -11.96663 | 41033 ft | 485 kts | 78° |
| 2026-04-07 15:33 | 47.54806 | -11.86953 | 41029 ft | 485 kts | 78° |
| 2026-04-07 15:34 | 47.56355 | -11.77239 | 41018 ft | 485 kts | 78° |
| 2026-04-07 15:34 | 47.57897 | -11.67509 | 41027 ft | 485 kts | 79° |
| 2026-04-07 15:35 | 47.59428 | -11.57769 | 41025 ft | 486 kts | 79° |
| 2026-04-07 15:35 | 47.60954 | -11.48018 | 41025 ft | 486 kts | 79° |
| 2026-04-07 15:36 | 47.62473 | -11.38254 | 41025 ft | 486 kts | 79° |
| 2026-04-07 15:36 | 47.63983 | -11.28489 | 41026 ft | 486 kts | 80° |
| 2026-04-07 15:37 | 47.65486 | -11.18708 | 41027 ft | 486 kts | 80° |
| 2026-04-07 15:37 | 47.66980 | -11.08922 | 41028 ft | 487 kts | 80° |
| 2026-04-07 15:38 | 47.68468 | -10.99125 | 41022 ft | 487 kts | 80° |
| 2026-04-07 15:38 | 47.69936 | -10.89394 | 41020 ft | 486 kts | 80° |
| 2026-04-07 15:39 | 47.71404 | -10.79602 | 41019 ft | 486 kts | 81° |
| 2026-04-07 15:39 | 47.72863 | -10.69812 | 41030 ft | 485 kts | 81° |
| 2026-04-07 15:40 | 47.74312 | -10.60024 | 41024 ft | 485 kts | 81° |
| 2026-04-07 15:40 | 47.75753 | -10.50229 | 41031 ft | 485 kts | 81° |
| 2026-04-07 15:41 | 47.77185 | -10.40432 | 41015 ft | 485 kts | 81° |
| 2026-04-07 15:41 | 47.78608 | -10.30632 | 41025 ft | 485 kts | 81° |
| 2026-04-07 15:42 | 47.80024 | -10.20826 | 41025 ft | 485 kts | 81° |
| 2026-04-07 15:42 | 47.82130 | -10.06114 | 41029 ft | 484 kts | 81° |
| 2026-04-07 15:43 | 47.83521 | -9.96319 | 41021 ft | 484 kts | 81° |
| 2026-04-07 15:43 | 47.84904 | -9.86521 | 41024 ft | 483 kts | 81° |
| 2026-04-07 15:44 | 47.86276 | -9.76727 | 41031 ft | 483 kts | 82° |
| 2026-04-07 15:44 | 47.87638 | -9.66947 | 41024 ft | 482 kts | 81° |
| 2026-04-07 15:45 | 47.88989 | -9.57182 | 41027 ft | 481 kts | 81° |
| 2026-04-07 15:45 | 47.90330 | -9.47421 | 41030 ft | 481 kts | 82° |
| 2026-04-07 15:46 | 47.91662 | -9.37661 | 41036 ft | 481 kts | 82° |
| 2026-04-07 15:46 | 47.92985 | -9.27898 | 41030 ft | 480 kts | 81° |
| 2026-04-07 15:47 | 47.94298 | -9.18147 | 41035 ft | 479 kts | 82° |
| 2026-04-07 15:47 | 47.95600 | -9.08409 | 41039 ft | 479 kts | 82° |
| 2026-04-07 15:48 | 47.96894 | -8.98667 | 41041 ft | 479 kts | 82° |
| 2026-04-07 15:48 | 47.98180 | -8.88921 | 41039 ft | 479 kts | 82° |
| 2026-04-07 15:49 | 47.99458 | -8.79168 | 41042 ft | 479 kts | 82° |
| 2026-04-07 15:49 | 48.00117 | -8.69406 | 41042 ft | 474 kts | 92° |
| 2026-04-07 15:50 | 48.00089 | -8.59572 | 41051 ft | 474 kts | 93° |
| 2026-04-07 15:50 | 48.00056 | -8.49719 | 41035 ft | 474 kts | 93° |
| 2026-04-07 15:51 | 48.00054 | -8.39879 | 41039 ft | 474 kts | 92° |
| 2026-04-07 15:51 | 48.00055 | -8.30053 | 41042 ft | 473 kts | 93° |
| 2026-04-07 15:52 | 48.00047 | -8.20233 | 41043 ft | 473 kts | 93° |
| 2026-04-07 15:52 | 48.00030 | -8.10419 | 41043 ft | 472 kts | 93° |
| 2026-04-07 15:53 | 48.01110 | -8.00833 | 41043 ft | 478 kts | 66° |
| 2026-04-07 15:53 | 48.02921 | -7.96636 | 41052 ft | 484 kts | 50° |
| 2026-04-07 15:53 | 48.05419 | -7.93266 | 41050 ft | 485 kts | 39° |
| 2026-04-07 15:54 | 48.10832 | -7.87172 | 41050 ft | 489 kts | 39° |
| 2026-04-07 15:54 | 48.16257 | -7.80997 | 41055 ft | 491 kts | 39° |
| 2026-04-07 15:55 | 48.21667 | -7.74707 | 41056 ft | 493 kts | 40° |
| 2026-04-07 15:55 | 48.27078 | -7.68343 | 41046 ft | 495 kts | 40° |
| 2026-04-07 15:56 | 48.32488 | -7.61956 | 41049 ft | 495 kts | 40° |
| 2026-04-07 15:56 | 48.37903 | -7.55552 | 41050 ft | 495 kts | 40° |
| 2026-04-07 15:57 | 48.43306 | -7.49147 | 41047 ft | 494 kts | 40° |
| 2026-04-07 15:57 | 48.48698 | -7.42738 | 41053 ft | 493 kts | 40° |
| 2026-04-07 15:58 | 48.54084 | -7.36319 | 41043 ft | 493 kts | 40° |
| 2026-04-07 15:58 | 48.59448 | -7.29906 | 41041 ft | 491 kts | 40° |
| 2026-04-07 15:59 | 48.64799 | -7.23492 | 41059 ft | 490 kts | 40° |
| 2026-04-07 15:59 | 48.70137 | -7.17075 | 41063 ft | 490 kts | 40° |
| 2026-04-07 16:00 | 48.75465 | -7.10653 | 41064 ft | 490 kts | 40° |
| 2026-04-07 16:00 | 48.80792 | -7.04214 | 41061 ft | 490 kts | 40° |
| 2026-04-07 16:01 | 48.86080 | -6.97804 | 41055 ft | 490 kts | 40° |
| 2026-04-07 16:01 | 48.91402 | -6.91334 | 41056 ft | 490 kts | 40° |
| 2026-04-07 16:02 | 48.96728 | -6.84843 | 41059 ft | 491 kts | 40° |
| 2026-04-07 16:02 | 49.02052 | -6.78334 | 41061 ft | 491 kts | 40° |
| 2026-04-07 16:03 | 49.07379 | -6.71804 | 41061 ft | 491 kts | 40° |
| 2026-04-07 16:03 | 49.12703 | -6.65259 | 41065 ft | 492 kts | 40° |
| 2026-04-07 16:04 | 49.18028 | -6.58693 | 41059 ft | 492 kts | 40° |
| 2026-04-07 16:04 | 49.23344 | -6.52121 | 41062 ft | 491 kts | 40° |
| 2026-04-07 16:05 | 49.27757 | -6.46650 | 41057 ft | 491 kts | 40° |
| 2026-04-07 16:05 | 49.33058 | -6.40061 | 41063 ft | 491 kts | 40° |
| 2026-04-07 16:06 | 49.38356 | -6.33457 | 41064 ft | 491 kts | 40° |
| 2026-04-07 16:06 | 49.43656 | -6.26830 | 41061 ft | 492 kts | 40° |
| 2026-04-07 16:07 | 49.48956 | -6.20188 | 41056 ft | 491 kts | 40° |
| 2026-04-07 16:07 | 49.53924 | -6.13015 | 41064 ft | 489 kts | 50° |
| 2026-04-07 16:08 | 49.58028 | -6.04694 | 41068 ft | 488 kts | 56° |
| 2026-04-07 16:08 | 49.61958 | -5.96157 | 41061 ft | 489 kts | 56° |
| 2026-04-07 16:09 | 49.65903 | -5.87616 | 41063 ft | 489 kts | 56° |
| 2026-04-07 16:09 | 49.69870 | -5.79081 | 41060 ft | 489 kts | 55° |
| 2026-04-07 16:10 | 49.73840 | -5.70546 | 41064 ft | 489 kts | 55° |
| 2026-04-07 16:10 | 49.77800 | -5.62003 | 41063 ft | 488 kts | 56° |
| 2026-04-07 16:11 | 49.81749 | -5.53453 | 41069 ft | 488 kts | 56° |
| 2026-04-07 16:11 | 49.85688 | -5.44893 | 41070 ft | 488 kts | 56° |
| 2026-04-07 16:12 | 49.89620 | -5.36321 | 41064 ft | 487 kts | 56° |
| 2026-04-07 16:12 | 49.93542 | -5.27745 | 41073 ft | 487 kts | 56° |
| 2026-04-07 16:13 | 49.97429 | -5.19216 | 41080 ft | 487 kts | 56° |
| 2026-04-07 16:13 | 50.01333 | -5.10621 | 41080 ft | 487 kts | 56° |
| 2026-04-07 16:14 | 50.05233 | -5.02008 | 41072 ft | 487 kts | 56° |
| 2026-04-07 16:14 | 50.09128 | -4.93379 | 41077 ft | 487 kts | 56° |
| 2026-04-07 16:15 | 50.13016 | -4.84737 | 41083 ft | 488 kts | 56° |
| 2026-04-07 16:15 | 50.16907 | -4.76060 | 41077 ft | 488 kts | 56° |
| 2026-04-07 16:16 | 50.20793 | -4.67363 | 41077 ft | 489 kts | 56° |
| 2026-04-07 16:16 | 50.24678 | -4.58643 | 41073 ft | 489 kts | 56° |
| 2026-04-07 16:17 | 50.28556 | -4.49907 | 41083 ft | 489 kts | 56° |
| 2026-04-07 16:17 | 50.32427 | -4.41160 | 41084 ft | 489 kts | 56° |
| 2026-04-07 16:18 | 50.36297 | -4.32385 | 41071 ft | 491 kts | 56° |
| 2026-04-07 16:18 | 50.40183 | -4.23540 | 41095 ft | 495 kts | 57° |
| 2026-04-07 16:19 | 50.44091 | -4.14620 | 41080 ft | 497 kts | 57° |
| 2026-04-07 16:19 | 50.47995 | -4.05683 | 41097 ft | 496 kts | 57° |
| 2026-04-07 16:20 | 50.51320 | -3.96297 | 41108 ft | 490 kts | 70° |
| 2026-04-07 16:20 | 50.52459 | -3.91261 | 40726 ft | 492 kts | 76° |
| 2026-04-07 16:20 | 50.53217 | -3.86008 | 40111 ft | 491 kts | 82° |
| 2026-04-07 16:21 | 50.53770 | -3.80738 | 39506 ft | 489 kts | 83° |
| 2026-04-07 16:21 | 50.54299 | -3.75464 | 38876 ft | 488 kts | 84° |
| 2026-04-07 16:21 | 50.54837 | -3.70199 | 38141 ft | 487 kts | 83° |
| 2026-04-07 16:21 | 50.55389 | -3.64983 | 37697 ft | 480 kts | 83° |
| 2026-04-07 16:22 | 50.55946 | -3.59840 | 37252 ft | 474 kts | 83° |
| 2026-04-07 16:22 | 50.56499 | -3.54769 | 36820 ft | 468 kts | 83° |
| 2026-04-07 16:22 | 50.57043 | -3.49746 | 36394 ft | 463 kts | 83° |
| 2026-04-07 16:22 | 50.57582 | -3.44775 | 35981 ft | 459 kts | 83° |
| 2026-04-07 16:23 | 50.58144 | -3.39865 | 35570 ft | 455 kts | 83° |
| 2026-04-07 16:23 | 50.58722 | -3.34990 | 35108 ft | 451 kts | 83° |
| 2026-04-07 16:23 | 50.59291 | -3.30217 | 34701 ft | 448 kts | 83° |
| 2026-04-07 16:23 | 50.59857 | -3.25423 | 34267 ft | 445 kts | 83° |
| 2026-04-07 16:24 | 50.60415 | -3.20647 | 33813 ft | 442 kts | 83° |
| 2026-04-07 16:24 | 50.60964 | -3.15912 | 33339 ft | 438 kts | 83° |
| 2026-04-07 16:24 | 50.61505 | -3.11208 | 32903 ft | 435 kts | 83° |
| 2026-04-07 16:24 | 50.62040 | -3.06548 | 32472 ft | 431 kts | 83° |
| 2026-04-07 16:25 | 50.62570 | -3.01916 | 32049 ft | 428 kts | 83° |
| 2026-04-07 16:25 | 50.63093 | -2.97327 | 31626 ft | 425 kts | 83° |
| 2026-04-07 16:25 | 50.63610 | -2.92764 | 31208 ft | 422 kts | 83° |
| 2026-04-07 16:25 | 50.64122 | -2.88229 | 30774 ft | 419 kts | 84° |
| 2026-04-07 16:26 | 50.64629 | -2.83720 | 30377 ft | 417 kts | 84° |
| 2026-04-07 16:26 | 50.65131 | -2.79239 | 29916 ft | 415 kts | 83° |
| 2026-04-07 16:26 | 50.65631 | -2.74767 | 29439 ft | 413 kts | 83° |
| 2026-04-07 16:26 | 50.66124 | -2.70330 | 28996 ft | 410 kts | 83° |
| 2026-04-07 16:27 | 50.66614 | -2.65909 | 28532 ft | 408 kts | 83° |
| 2026-04-07 16:27 | 50.67101 | -2.61516 | 28087 ft | 406 kts | 83° |
| 2026-04-07 16:27 | 50.67584 | -2.57132 | 27640 ft | 405 kts | 83° |
| 2026-04-07 16:27 | 50.68062 | -2.52762 | 27193 ft | 403 kts | 83° |
| 2026-04-07 16:28 | 50.68261 | -2.48412 | 26889 ft | 394 kts | 95° |
| 2026-04-07 16:28 | 50.68076 | -2.44111 | 26642 ft | 394 kts | 98° |
| 2026-04-07 16:28 | 50.67827 | -2.39788 | 26390 ft | 398 kts | 98° |
| 2026-04-07 16:28 | 50.67583 | -2.35441 | 26124 ft | 398 kts | 98° |
| 2026-04-07 16:29 | 50.67362 | -2.31108 | 25842 ft | 395 kts | 97° |
| 2026-04-07 16:29 | 50.67161 | -2.26807 | 25577 ft | 393 kts | 97° |
| 2026-04-07 16:29 | 50.66972 | -2.22531 | 25325 ft | 391 kts | 97° |
| 2026-04-07 16:29 | 50.66785 | -2.18257 | 25075 ft | 389 kts | 97° |
| 2026-04-07 16:30 | 50.66600 | -2.14007 | 24801 ft | 388 kts | 97° |
| 2026-04-07 16:30 | 50.66413 | -2.09767 | 24550 ft | 387 kts | 96° |
| 2026-04-07 16:30 | 50.66223 | -2.05535 | 24293 ft | 387 kts | 97° |
| 2026-04-07 16:30 | 50.66054 | -2.01309 | 24038 ft | 387 kts | 94° |
| 2026-04-07 16:31 | 50.66044 | -1.97065 | 23784 ft | 387 kts | 91° |
| 2026-04-07 16:31 | 50.66119 | -1.92826 | 23488 ft | 387 kts | 90° |
| 2026-04-07 16:31 | 50.66207 | -1.88654 | 23202 ft | 385 kts | 91° |
| 2026-04-07 16:31 | 50.66285 | -1.84459 | 22935 ft | 381 kts | 90° |
| 2026-04-07 16:32 | 50.66349 | -1.80306 | 22679 ft | 377 kts | 91° |
| 2026-04-07 16:32 | 50.66401 | -1.76192 | 22426 ft | 375 kts | 91° |
| 2026-04-07 16:32 | 50.66445 | -1.72100 | 22179 ft | 372 kts | 91° |
| 2026-04-07 16:32 | 50.66487 | -1.68025 | 21931 ft | 370 kts | 92° |
| 2026-04-07 16:33 | 50.66527 | -1.63972 | 21684 ft | 369 kts | 91° |
| 2026-04-07 16:33 | 50.66565 | -1.59936 | 21438 ft | 368 kts | 92° |
| 2026-04-07 16:33 | 50.66635 | -1.55925 | 21178 ft | 364 kts | 87° |
| 2026-04-07 16:33 | 50.67297 | -1.52047 | 20820 ft | 369 kts | 66° |
| 2026-04-07 16:34 | 50.68474 | -1.48448 | 20472 ft | 371 kts | 64° |
| 2026-04-07 16:34 | 50.69653 | -1.44823 | 20054 ft | 371 kts | 65° |
| 2026-04-07 16:34 | 50.70807 | -1.41191 | 19656 ft | 369 kts | 66° |
| 2026-04-07 16:34 | 50.71938 | -1.37572 | 19253 ft | 367 kts | 66° |
| 2026-04-07 16:35 | 50.73055 | -1.33964 | 18869 ft | 364 kts | 66° |
| 2026-04-07 16:35 | 50.74159 | -1.30382 | 18494 ft | 362 kts | 66° |
| 2026-04-07 16:35 | 50.75257 | -1.26812 | 18052 ft | 360 kts | 66° |
| 2026-04-07 16:35 | 50.76553 | -1.23491 | 17618 ft | 355 kts | 49° |
| 2026-04-07 16:36 | 50.78476 | -1.21088 | 17260 ft | 352 kts | 33° |
| 2026-04-07 16:36 | 50.80558 | -1.19015 | 16872 ft | 355 kts | 33° |
| 2026-04-07 16:36 | 50.82640 | -1.16918 | 16486 ft | 354 kts | 34° |
| 2026-04-07 16:36 | 50.84701 | -1.14823 | 16116 ft | 351 kts | 34° |
| 2026-04-07 16:37 | 50.86743 | -1.12734 | 15742 ft | 348 kts | 34° |
| 2026-04-07 16:37 | 50.88771 | -1.10646 | 15371 ft | 347 kts | 34° |
| 2026-04-07 16:37 | 50.90782 | -1.08569 | 15006 ft | 344 kts | 35° |
| 2026-04-07 16:37 | 50.92783 | -1.06496 | 14633 ft | 344 kts | 35° |
| 2026-04-07 16:38 | 50.94781 | -1.04424 | 14265 ft | 342 kts | 35° |
| 2026-04-07 16:38 | 50.96764 | -1.02365 | 13890 ft | 340 kts | 35° |
| 2026-04-07 16:38 | 50.98738 | -1.00313 | 13493 ft | 338 kts | 35° |
| 2026-04-07 16:38 | 51.00673 | -0.98235 | 13180 ft | 332 kts | 40° |
| 2026-04-07 16:39 | 51.02373 | -0.95680 | 12843 ft | 339 kts | 50° |
| 2026-04-07 16:39 | 51.03920 | -0.92866 | 12482 ft | 338 kts | 52° |
| 2026-04-07 16:39 | 51.05426 | -0.90024 | 12140 ft | 334 kts | 52° |
| 2026-04-07 16:39 | 51.06923 | -0.87230 | 11833 ft | 330 kts | 51° |
| 2026-04-07 16:40 | 51.08417 | -0.84493 | 11509 ft | 326 kts | 51° |
| 2026-04-07 16:40 | 51.09910 | -0.81786 | 11198 ft | 324 kts | 51° |
| 2026-04-07 16:40 | 51.11399 | -0.79106 | 10891 ft | 323 kts | 50° |
| 2026-04-07 16:40 | 51.12865 | -0.76478 | 10592 ft | 319 kts | 50° |
| 2026-04-07 16:41 | 51.14333 | -0.73850 | 10297 ft | 316 kts | 50° |
| 2026-04-07 16:41 | 51.15783 | -0.71255 | 10026 ft | 311 kts | 51° |
| 2026-04-07 16:41 | 51.17210 | -0.68696 | 9671 ft | 309 kts | 51° |
| 2026-04-07 16:41 | 51.18630 | -0.66145 | 9361 ft | 305 kts | 50° |
| 2026-04-07 16:42 | 51.20031 | -0.63628 | 9063 ft | 302 kts | 50° |
| 2026-04-07 16:42 | 51.21418 | -0.61131 | 8752 ft | 299 kts | 50° |
| 2026-04-07 16:42 | 51.22789 | -0.58666 | 8471 ft | 296 kts | 51° |
| 2026-04-07 16:42 | 51.24146 | -0.56219 | 8194 ft | 293 kts | 51° |
| 2026-04-07 16:43 | 51.25504 | -0.53831 | 7916 ft | 286 kts | 46° |
| 2026-04-07 16:43 | 51.27211 | -0.52188 | 7529 ft | 292 kts | 17° |
| 2026-04-07 16:43 | 51.29217 | -0.51939 | 7366 ft | 289 kts | 350° |
| 2026-04-07 16:43 | 51.31055 | -0.53106 | 7214 ft | 281 kts | 321° |
| 2026-04-07 16:44 | 51.32309 | -0.55388 | 7190 ft | 271 kts | 289° |
| 2026-04-07 16:44 | 51.32859 | -0.58226 | 7198 ft | 268 kts | 281° |
| 2026-04-07 16:44 | 51.33307 | -0.61090 | 7193 ft | 261 kts | 281° |
| 2026-04-07 16:44 | 51.33734 | -0.63863 | 7191 ft | 255 kts | 281° |
| 2026-04-07 16:45 | 51.34145 | -0.66605 | 7195 ft | 254 kts | 281° |
| 2026-04-07 16:45 | 51.34560 | -0.69358 | 7203 ft | 255 kts | 279° |
| 2026-04-07 16:45 | 51.35001 | -0.72100 | 7206 ft | 255 kts | 282° |
| 2026-04-07 16:45 | 51.35439 | -0.74852 | 7149 ft | 255 kts | 280° |
| 2026-04-07 16:46 | 51.35886 | -0.77589 | 6909 ft | 253 kts | 279° |
| 2026-04-07 16:46 | 51.36304 | -0.80310 | 6632 ft | 251 kts | 281° |
| 2026-04-07 16:46 | 51.36889 | -0.82926 | 6175 ft | 255 kts | 300° |
| 2026-04-07 16:46 | 51.38190 | -0.84829 | 5933 ft | 254 kts | 333° |
| 2026-04-07 16:47 | 51.39869 | -0.85491 | 5703 ft | 249 kts | 356° |
| 2026-04-07 16:47 | 51.41608 | -0.85571 | 5343 ft | 251 kts | 360° |
| 2026-04-07 16:47 | 51.43360 | -0.85548 | 4984 ft | 250 kts | 5° |
| 2026-04-07 16:47 | 51.44997 | -0.84735 | 4578 ft | 247 kts | 37° |
| 2026-04-07 16:48 | 51.46143 | -0.82822 | 4248 ft | 236 kts | 60° |
| 2026-04-07 16:48 | 51.47017 | -0.80695 | 3850 ft | 223 kts | 65° |
| 2026-04-07 16:48 | 51.47500 | -0.78449 | 3629 ft | 208 kts | 87° |
| 2026-04-07 16:49 | 51.47654 | -0.73899 | 3206 ft | 202 kts | 93° |
| 2026-04-07 16:49 | 51.47668 | -0.71680 | 2926 ft | 193 kts | 94° |
| 2026-04-07 16:49 | 51.47677 | -0.69603 | 2670 ft | 180 kts | 94° |
| 2026-04-07 16:49 | 51.47682 | -0.67630 | 2422 ft | 173 kts | 94° |
| 2026-04-07 16:50 | 51.47687 | -0.65734 | 2217 ft | 168 kts | 93° |
| 2026-04-07 16:50 | 51.47692 | -0.63919 | 2007 ft | 156 kts | 93° |
| 2026-04-07 16:50 | 51.47700 | -0.62215 | 1790 ft | 150 kts | 93° |
| 2026-04-07 16:50 | 51.47706 | -0.60545 | 1576 ft | 146 kts | 92° |
| 2026-04-07 16:51 | 51.47711 | -0.58931 | 1382 ft | 144 kts | 92° |
| 2026-04-07 16:51 | 51.47719 | -0.57398 | 1164 ft | 130 kts | 92° |
| 2026-04-07 16:51 | 51.47726 | -0.55940 | 1006 ft | 130 kts | 93° |
| 2026-04-07 16:51 | 51.47725 | -0.54526 | 823 ft | 126 kts | 92° |
| 2026-04-07 16:52 | 51.47731 | -0.53144 | 645 ft | 122 kts | 90° |
| 2026-04-07 16:52 | 51.47740 | -0.51787 | 486 ft | 123 kts | 89° |
| 2026-04-07 16:52 | 51.47750 | -0.50394 | 331 ft | 122 kts | 88° |
| 2026-04-07 16:52 | 51.47751 | -0.49040 | 184 ft | 124 kts | 90° |
| 2026-04-07 16:53 | 51.47754 | -0.47640 | 104 ft | 123 kts | 87° |
| 2026-04-07 16:53 | 51.47767 | -0.46418 | 96 ft | 95 kts | 90° |
| 2026-04-07 16:53 | 51.47770 | -0.45556 | 93 ft | 62 kts | 90° |
| 2026-04-07 16:53 | 51.47770 | -0.45140 | 96 ft | 50 kts | 90° |
| 2026-04-07 16:54 | 51.47663 | -0.44809 | 96 ft | 23 kts | 155° |
| 2026-04-07 16:54 | 51.47601 | -0.44877 | 95 ft | 10 kts | 261° |
| 2026-04-07 16:54 | 51.47598 | -0.44982 | 91 ft | 9 kts | 269° |
| 2026-04-07 16:54 | 51.47597 | -0.45096 | 91 ft | 11 kts | 269° |
| 2026-04-07 16:55 | 51.47596 | -0.45301 | 94 ft | 27 kts | 269° |
| 2026-04-07 16:55 | 51.47596 | -0.45603 | 94 ft | 24 kts | 270° |
| 2026-04-07 16:55 | 51.47595 | -0.45845 | 94 ft | 18 kts | 270° |
| 2026-04-07 16:55 | 51.47595 | -0.46026 | 94 ft | 15 kts | 269° |
| 2026-04-07 16:56 | 51.47594 | -0.46214 | 94 ft | 20 kts | 269° |
| 2026-04-07 16:56 | 51.47593 | -0.46461 | 94 ft | 22 kts | 269° |
| 2026-04-07 16:56 | 51.47592 | -0.46676 | 91 ft | 14 kts | 270° |
| 2026-04-07 16:56 | 51.47583 | -0.46863 | 94 ft | 21 kts | 253° |
| 2026-04-07 16:57 | 51.47477 | -0.46905 | 94 ft | 18 kts | 164° |
| 2026-04-07 16:57 | 51.47364 | -0.46868 | 92 ft | 15 kts | 179° |
| 2026-04-07 16:57 | 51.47265 | -0.46868 | 90 ft | 13 kts | 181° |
| 2026-04-07 16:57 | 51.47176 | -0.46865 | 90 ft | 13 kts | 179° |
| 2026-04-07 16:58 | 51.47073 | -0.46862 | 90 ft | 15 kts | 179° |
| 2026-04-07 16:58 | 51.46974 | -0.46859 | 91 ft | 13 kts | 179° |
| 2026-04-07 16:58 | 51.46871 | -0.46860 | 92 ft | 17 kts | 180° |
| 2026-04-07 16:58 | 51.46762 | -0.46840 | 93 ft | 14 kts | 138° |
| 2026-04-07 16:59 | 51.46747 | -0.46683 | 94 ft | 15 kts | 89° |
| 2026-04-07 16:59 | 51.46748 | -0.46558 | 94 ft | 5 kts | 89° |
| 2026-04-07 16:59 | 51.46748 | -0.46458 | 94 ft | 14 kts | 91° |
| 2026-04-07 16:59 | 51.46747 | -0.46297 | 94 ft | 15 kts | 91° |
| 2026-04-07 17:00 | 51.46747 | -0.46134 | 94 ft | 16 kts | 89° |
| 2026-04-07 17:00 | 51.46773 | -0.45994 | 94 ft | 8 kts | 24° |
| 2026-04-07 17:00 | 51.46825 | -0.45994 | 92 ft | 11 kts | 345° |
| 2026-04-07 17:00 | 51.46877 | -0.46058 | 94 ft | 4 kts | 283° |
| 2026-04-07 17:01 | 51.46856 | -0.46116 | 94 ft | 9 kts | 237° |
| 2026-04-07 17:01 | 51.46844 | -0.46144 | 94 ft | 1 kts | 235° |